<?xml version="1.0" encoding="UTF-8" standalone="no" ?>
<gpx xmlns="http://www.topografix.com/GPX/1/1" xmlns:xsi="http://www.w3.org/2001/XMLSchema-instance" xsi:schemaLocation="http://www.topografix.com/GPX/1/1 http://www.topografix.com/GPX/1/1/gpx.xsd" version="1.1" creator="VisuGPX - https://www.visugpx.com">
  <metadata>
    <name>Tour de France 2019</name>
    <desc><![CDATA[4272km en 2 mois en tandem avec notre petit chien dans le panier avant]]></desc>
  </metadata>
  <trk>
    <name><![CDATA[Tracé 20190924-092318]]></name>
    <trkseg>
      <trkpt lat="48.35398" lon="5.69299">
        <ele>282.844</ele>
        <time>2019-09-24T09:24:00Z</time>
      </trkpt>
      <trkpt lat="48.35387" lon="5.69378">
        <ele>293.13</ele>
        <time>2019-09-24T09:24:33Z</time>
      </trkpt>
      <trkpt lat="48.35297" lon="5.6956">
        <ele>293.824</ele>
        <time>2019-09-24T09:25:03Z</time>
      </trkpt>
      <trkpt lat="48.35221" lon="5.6972">
        <ele>289.53</ele>
        <time>2019-09-24T09:25:33Z</time>
      </trkpt>
      <trkpt lat="48.35134" lon="5.69623">
        <ele>291.257</ele>
        <time>2019-09-24T09:26:03Z</time>
      </trkpt>
      <trkpt lat="48.35043" lon="5.69485">
        <ele>291.965</ele>
        <time>2019-09-24T09:26:33Z</time>
      </trkpt>
      <trkpt lat="48.34993" lon="5.69429">
        <ele>289.077</ele>
        <time>2019-09-24T09:27:06Z</time>
      </trkpt>
      <trkpt lat="48.34963" lon="5.69452">
        <ele>291.387</ele>
        <time>2019-09-24T09:27:42Z</time>
      </trkpt>
      <trkpt lat="48.34899" lon="5.69542">
        <ele>295.061</ele>
        <time>2019-09-24T09:28:12Z</time>
      </trkpt>
      <trkpt lat="48.34838" lon="5.6964">
        <ele>299.321</ele>
        <time>2019-09-24T09:28:42Z</time>
      </trkpt>
      <trkpt lat="48.34773" lon="5.69709">
        <ele>306.252</ele>
        <time>2019-09-24T09:29:12Z</time>
      </trkpt>
      <trkpt lat="48.34696" lon="5.69719">
        <ele>310.718</ele>
        <time>2019-09-24T09:29:45Z</time>
      </trkpt>
      <trkpt lat="48.34631" lon="5.6966">
        <ele>316.268</ele>
        <time>2019-09-24T09:30:15Z</time>
      </trkpt>
      <trkpt lat="48.34599" lon="5.69573">
        <ele>316.738</ele>
        <time>2019-09-24T09:30:45Z</time>
      </trkpt>
      <trkpt lat="48.34578" lon="5.69473">
        <ele>318.688</ele>
        <time>2019-09-24T09:31:15Z</time>
      </trkpt>
      <trkpt lat="48.34551" lon="5.6938">
        <ele>320.473</ele>
        <time>2019-09-24T09:31:45Z</time>
      </trkpt>
      <trkpt lat="48.34515" lon="5.69287">
        <ele>323.124</ele>
        <time>2019-09-24T09:32:15Z</time>
      </trkpt>
      <trkpt lat="48.34472" lon="5.69212">
        <ele>326.693</ele>
        <time>2019-09-24T09:32:45Z</time>
      </trkpt>
      <trkpt lat="48.34399" lon="5.69203">
        <ele>325.736</ele>
        <time>2019-09-24T09:33:15Z</time>
      </trkpt>
      <trkpt lat="48.34316" lon="5.69229">
        <ele>328.706</ele>
        <time>2019-09-24T09:33:45Z</time>
      </trkpt>
      <trkpt lat="48.34231" lon="5.69262">
        <ele>336.799</ele>
        <time>2019-09-24T09:34:15Z</time>
      </trkpt>
      <trkpt lat="48.3416" lon="5.69293">
        <ele>336.498</ele>
        <time>2019-09-24T09:34:45Z</time>
      </trkpt>
      <trkpt lat="48.34055" lon="5.69298">
        <ele>331.434</ele>
        <time>2019-09-24T09:35:15Z</time>
      </trkpt>
      <trkpt lat="48.33934" lon="5.69291">
        <ele>330.845</ele>
        <time>2019-09-24T09:35:45Z</time>
      </trkpt>
      <trkpt lat="48.33786" lon="5.69281">
        <ele>331.726</ele>
        <time>2019-09-24T09:36:15Z</time>
      </trkpt>
      <trkpt lat="48.33656" lon="5.69272">
        <ele>331.817</ele>
        <time>2019-09-24T09:36:45Z</time>
      </trkpt>
      <trkpt lat="48.33558" lon="5.69266">
        <ele>333.873</ele>
        <time>2019-09-24T09:37:15Z</time>
      </trkpt>
      <trkpt lat="48.33471" lon="5.6926">
        <ele>340.276</ele>
        <time>2019-09-24T09:37:46Z</time>
      </trkpt>
      <trkpt lat="48.334" lon="5.69255">
        <ele>344.393</ele>
        <time>2019-09-24T09:38:16Z</time>
      </trkpt>
      <trkpt lat="48.33321" lon="5.69252">
        <ele>345.044</ele>
        <time>2019-09-24T09:38:46Z</time>
      </trkpt>
      <trkpt lat="48.3321" lon="5.69244">
        <ele>346.261</ele>
        <time>2019-09-24T09:39:16Z</time>
      </trkpt>
      <trkpt lat="48.33133" lon="5.69237">
        <ele>351.526</ele>
        <time>2019-09-24T09:39:46Z</time>
      </trkpt>
      <trkpt lat="48.33071" lon="5.69234">
        <ele>355.668</ele>
        <time>2019-09-24T09:40:16Z</time>
      </trkpt>
      <trkpt lat="48.33007" lon="5.69229">
        <ele>361.643</ele>
        <time>2019-09-24T09:40:46Z</time>
      </trkpt>
      <trkpt lat="48.32933" lon="5.69226">
        <ele>360.931</ele>
        <time>2019-09-24T09:41:19Z</time>
      </trkpt>
      <trkpt lat="48.32825" lon="5.69219">
        <ele>357.443</ele>
        <time>2019-09-24T09:41:49Z</time>
      </trkpt>
      <trkpt lat="48.32651" lon="5.69207">
        <ele>356.405</ele>
        <time>2019-09-24T09:42:19Z</time>
      </trkpt>
      <trkpt lat="48.32537" lon="5.692">
        <ele>361.073</ele>
        <time>2019-09-24T09:42:49Z</time>
      </trkpt>
      <trkpt lat="48.32447" lon="5.69193">
        <ele>362.001</ele>
        <time>2019-09-24T09:43:19Z</time>
      </trkpt>
      <trkpt lat="48.32351" lon="5.69187">
        <ele>364.761</ele>
        <time>2019-09-24T09:43:49Z</time>
      </trkpt>
      <trkpt lat="48.32275" lon="5.69183">
        <ele>366.304</ele>
        <time>2019-09-24T09:44:19Z</time>
      </trkpt>
      <trkpt lat="48.32201" lon="5.69179">
        <ele>369.325</ele>
        <time>2019-09-24T09:44:49Z</time>
      </trkpt>
      <trkpt lat="48.3213" lon="5.69173">
        <ele>372.531</ele>
        <time>2019-09-24T09:45:19Z</time>
      </trkpt>
      <trkpt lat="48.32052" lon="5.69168">
        <ele>375.027</ele>
        <time>2019-09-24T09:45:49Z</time>
      </trkpt>
      <trkpt lat="48.31976" lon="5.69162">
        <ele>378.905</ele>
        <time>2019-09-24T09:46:19Z</time>
      </trkpt>
      <trkpt lat="48.31891" lon="5.69156">
        <ele>382.035</ele>
        <time>2019-09-24T09:46:49Z</time>
      </trkpt>
      <trkpt lat="48.31796" lon="5.6915">
        <ele>383.828</ele>
        <time>2019-09-24T09:47:19Z</time>
      </trkpt>
      <trkpt lat="48.31698" lon="5.69148">
        <ele>384.125</ele>
        <time>2019-09-24T09:47:49Z</time>
      </trkpt>
      <trkpt lat="48.31598" lon="5.6914">
        <ele>387.821</ele>
        <time>2019-09-24T09:48:19Z</time>
      </trkpt>
      <trkpt lat="48.31499" lon="5.6913">
        <ele>390.831</ele>
        <time>2019-09-24T09:48:49Z</time>
      </trkpt>
      <trkpt lat="48.31393" lon="5.69126">
        <ele>391.472</ele>
        <time>2019-09-24T09:49:19Z</time>
      </trkpt>
      <trkpt lat="48.31273" lon="5.69117">
        <ele>393.529</ele>
        <time>2019-09-24T09:49:49Z</time>
      </trkpt>
      <trkpt lat="48.3115" lon="5.69108">
        <ele>395.032</ele>
        <time>2019-09-24T09:50:19Z</time>
      </trkpt>
      <trkpt lat="48.31013" lon="5.6907">
        <ele>392.731</ele>
        <time>2019-09-24T09:50:49Z</time>
      </trkpt>
      <trkpt lat="48.30883" lon="5.69034">
        <ele>390.849</ele>
        <time>2019-09-24T09:51:19Z</time>
      </trkpt>
      <trkpt lat="48.30837" lon="5.69389">
        <ele>372.796</ele>
        <time>2019-09-24T09:51:49Z</time>
      </trkpt>
      <trkpt lat="48.3078" lon="5.69854">
        <ele>345.311</ele>
        <time>2019-09-24T09:52:19Z</time>
      </trkpt>
      <trkpt lat="48.30768" lon="5.70387">
        <ele>313.813</ele>
        <time>2019-09-24T09:52:52Z</time>
      </trkpt>
      <trkpt lat="48.30716" lon="5.70639">
        <ele>313.399</ele>
        <time>2019-09-24T09:53:22Z</time>
      </trkpt>
      <trkpt lat="48.3067" lon="5.70766">
        <ele>320.862</ele>
        <time>2019-09-24T09:53:52Z</time>
      </trkpt>
      <trkpt lat="48.30577" lon="5.70746">
        <ele>324.002</ele>
        <time>2019-09-24T09:54:22Z</time>
      </trkpt>
      <trkpt lat="48.30404" lon="5.70546">
        <ele>323.489</ele>
        <time>2019-09-24T09:54:52Z</time>
      </trkpt>
      <trkpt lat="48.30169" lon="5.7045">
        <ele>323.073</ele>
        <time>2019-09-24T09:55:22Z</time>
      </trkpt>
      <trkpt lat="48.29969" lon="5.70482">
        <ele>298.699</ele>
        <time>2019-09-24T09:55:52Z</time>
      </trkpt>
      <trkpt lat="48.29865" lon="5.70617">
        <ele>303.668</ele>
        <time>2019-09-24T09:56:22Z</time>
      </trkpt>
      <trkpt lat="48.29801" lon="5.70758">
        <ele>308.749</ele>
        <time>2019-09-24T09:56:52Z</time>
      </trkpt>
      <trkpt lat="48.29791" lon="5.70942">
        <ele>310.717</ele>
        <time>2019-09-24T09:57:22Z</time>
      </trkpt>
      <trkpt lat="48.29733" lon="5.71142">
        <ele>308.993</ele>
        <time>2019-09-24T09:57:52Z</time>
      </trkpt>
      <trkpt lat="48.29619" lon="5.7109">
        <ele>307.406</ele>
        <time>2019-09-24T07:58:22.001Z</time>
      </trkpt>
      <trkpt lat="48.29498" lon="5.71043">
        <ele>304.795</ele>
        <time>2019-09-24T07:58:52.001Z</time>
      </trkpt>
      <trkpt lat="48.29355" lon="5.71028">
        <ele>302.723</ele>
        <time>2019-09-24T07:59:22.001Z</time>
      </trkpt>
      <trkpt lat="48.29261" lon="5.71188">
        <ele>307.101</ele>
        <time>2019-09-24T07:59:52.001Z</time>
      </trkpt>
      <trkpt lat="48.29162" lon="5.71341">
        <ele>310.407</ele>
        <time>2019-09-24T08:00:22.001Z</time>
      </trkpt>
      <trkpt lat="48.29032" lon="5.71403">
        <ele>304.77</ele>
        <time>2019-09-24T08:00:52.001Z</time>
      </trkpt>
      <trkpt lat="48.28907" lon="5.71352">
        <ele>308.377</ele>
        <time>2019-09-24T08:01:22.001Z</time>
      </trkpt>
      <trkpt lat="48.28781" lon="5.71239">
        <ele>310.354</ele>
        <time>2019-09-24T08:01:52.001Z</time>
      </trkpt>
      <trkpt lat="48.28678" lon="5.71109">
        <ele>311.427</ele>
        <time>2019-09-24T08:02:22.001Z</time>
      </trkpt>
      <trkpt lat="48.2858" lon="5.70952">
        <ele>312.309</ele>
        <time>2019-09-24T08:02:52.001Z</time>
      </trkpt>
      <trkpt lat="48.28513" lon="5.70785">
        <ele>315.616</ele>
        <time>2019-09-24T08:03:22.001Z</time>
      </trkpt>
      <trkpt lat="48.28464" lon="5.70609">
        <ele>307.683</ele>
        <time>2019-09-24T08:03:52.001Z</time>
      </trkpt>
      <trkpt lat="48.28402" lon="5.70415">
        <ele>312.629</ele>
        <time>2019-09-24T08:04:25.001Z</time>
      </trkpt>
      <trkpt lat="48.28345" lon="5.70234">
        <ele>314.025</ele>
        <time>2019-09-24T08:04:55.001Z</time>
      </trkpt>
      <trkpt lat="48.28271" lon="5.70102">
        <ele>323.549</ele>
        <time>2019-09-24T08:05:25.001Z</time>
      </trkpt>
      <trkpt lat="48.28183" lon="5.69924">
        <ele>313.874</ele>
        <time>2019-09-24T08:05:55.001Z</time>
      </trkpt>
      <trkpt lat="48.28171" lon="5.69734">
        <ele>330.163</ele>
        <time>2019-09-24T08:06:25.001Z</time>
      </trkpt>
      <trkpt lat="48.28205" lon="5.69529">
        <ele>335.518</ele>
        <time>2019-09-24T08:06:55.001Z</time>
      </trkpt>
      <trkpt lat="48.2827" lon="5.69335">
        <ele>333.413</ele>
        <time>2019-09-24T08:07:25.001Z</time>
      </trkpt>
      <trkpt lat="48.28145" lon="5.69299">
        <ele>323.485</ele>
        <time>2019-09-24T08:07:55.001Z</time>
      </trkpt>
      <trkpt lat="48.28009" lon="5.6926">
        <ele>327.31</ele>
        <time>2019-09-24T08:08:25.001Z</time>
      </trkpt>
      <trkpt lat="48.27858" lon="5.69215">
        <ele>326.602</ele>
        <time>2019-09-24T08:08:55.001Z</time>
      </trkpt>
      <trkpt lat="48.27721" lon="5.69195">
        <ele>321.322</ele>
        <time>2019-09-24T08:09:25.001Z</time>
      </trkpt>
      <trkpt lat="48.27591" lon="5.69158">
        <ele>323.162</ele>
        <time>2019-09-24T08:09:55.001Z</time>
      </trkpt>
      <trkpt lat="48.27476" lon="5.69048">
        <ele>337.018</ele>
        <time>2019-09-24T08:10:25.001Z</time>
      </trkpt>
      <trkpt lat="48.2742" lon="5.6886">
        <ele>341.888</ele>
        <time>2019-09-24T08:10:55.001Z</time>
      </trkpt>
      <trkpt lat="48.27423" lon="5.68654">
        <ele>348.431</ele>
        <time>2019-09-24T08:11:25.001Z</time>
      </trkpt>
      <trkpt lat="48.2738" lon="5.68491">
        <ele>336.055</ele>
        <time>2019-09-24T08:11:55.001Z</time>
      </trkpt>
      <trkpt lat="48.27231" lon="5.68563">
        <ele>322.2</ele>
        <time>2019-09-24T08:12:25.001Z</time>
      </trkpt>
      <trkpt lat="48.27064" lon="5.68636">
        <ele>317.438</ele>
        <time>2019-09-24T08:12:55.001Z</time>
      </trkpt>
      <trkpt lat="48.26909" lon="5.68589">
        <ele>313.506</ele>
        <time>2019-09-24T08:13:25.001Z</time>
      </trkpt>
      <trkpt lat="48.26768" lon="5.68489">
        <ele>313.688</ele>
        <time>2019-09-24T08:13:55.001Z</time>
      </trkpt>
      <trkpt lat="48.26644" lon="5.6836">
        <ele>315.374</ele>
        <time>2019-09-24T08:14:25.001Z</time>
      </trkpt>
      <trkpt lat="48.26546" lon="5.68178">
        <ele>312.753</ele>
        <time>2019-09-24T08:14:55.001Z</time>
      </trkpt>
      <trkpt lat="48.26454" lon="5.68005">
        <ele>311.922</ele>
        <time>2019-09-24T08:15:25.001Z</time>
      </trkpt>
      <trkpt lat="48.26337" lon="5.67836">
        <ele>313.714</ele>
        <time>2019-09-24T08:15:58.001Z</time>
      </trkpt>
      <trkpt lat="48.26221" lon="5.67701">
        <ele>311.575</ele>
        <time>2019-09-24T08:16:28.001Z</time>
      </trkpt>
      <trkpt lat="48.26103" lon="5.67568">
        <ele>312.947</ele>
        <time>2019-09-24T08:16:58.001Z</time>
      </trkpt>
      <trkpt lat="48.26032" lon="5.67358">
        <ele>311.63</ele>
        <time>2019-09-24T08:17:28.001Z</time>
      </trkpt>
      <trkpt lat="48.2591" lon="5.67281">
        <ele>318.796</ele>
        <time>2019-09-24T08:17:58.001Z</time>
      </trkpt>
      <trkpt lat="48.25773" lon="5.67225">
        <ele>317.617</ele>
        <time>2019-09-24T08:18:28.001Z</time>
      </trkpt>
      <trkpt lat="48.25627" lon="5.67212">
        <ele>313.278</ele>
        <time>2019-09-24T08:18:58.001Z</time>
      </trkpt>
      <trkpt lat="48.2548" lon="5.67234">
        <ele>311.615</ele>
        <time>2019-09-24T08:19:28.001Z</time>
      </trkpt>
      <trkpt lat="48.2535" lon="5.67283">
        <ele>315.063</ele>
        <time>2019-09-24T08:19:58.001Z</time>
      </trkpt>
      <trkpt lat="48.25266" lon="5.67317">
        <ele>317.413</ele>
        <time>2019-09-24T08:20:28.001Z</time>
      </trkpt>
      <trkpt lat="48.25193" lon="5.67345">
        <ele>318.985</ele>
        <time>2019-09-24T08:20:58.001Z</time>
      </trkpt>
      <trkpt lat="48.25117" lon="5.67377">
        <ele>321.746</ele>
        <time>2019-09-24T08:21:28.001Z</time>
      </trkpt>
      <trkpt lat="48.25021" lon="5.67415">
        <ele>324.022</ele>
        <time>2019-09-24T08:21:58.001Z</time>
      </trkpt>
      <trkpt lat="48.24896" lon="5.67466">
        <ele>326.343</ele>
        <time>2019-09-24T08:22:28.001Z</time>
      </trkpt>
      <trkpt lat="48.24712" lon="5.67536">
        <ele>320.695</ele>
        <time>2019-09-24T08:22:58.001Z</time>
      </trkpt>
      <trkpt lat="48.24559" lon="5.67563">
        <ele>322.975</ele>
        <time>2019-09-24T08:23:28.001Z</time>
      </trkpt>
      <trkpt lat="48.24425" lon="5.67492">
        <ele>329.526</ele>
        <time>2019-09-24T08:23:58.001Z</time>
      </trkpt>
      <trkpt lat="48.24278" lon="5.67415">
        <ele>321.49</ele>
        <time>2019-09-24T08:24:28.001Z</time>
      </trkpt>
      <trkpt lat="48.24147" lon="5.67357">
        <ele>317.627</ele>
        <time>2019-09-24T08:24:58.001Z</time>
      </trkpt>
      <trkpt lat="48.24032" lon="5.67307">
        <ele>318.127</ele>
        <time>2019-09-24T08:25:28.001Z</time>
      </trkpt>
      <trkpt lat="48.23901" lon="5.67249">
        <ele>318.823</ele>
        <time>2019-09-24T08:25:58.001Z</time>
      </trkpt>
      <trkpt lat="48.23788" lon="5.67198">
        <ele>320.214</ele>
        <time>2019-09-24T08:26:28.001Z</time>
      </trkpt>
      <trkpt lat="48.23677" lon="5.6715">
        <ele>321.468</ele>
        <time>2019-09-24T08:26:58.001Z</time>
      </trkpt>
      <trkpt lat="48.23521" lon="5.67079">
        <ele>316.909</ele>
        <time>2019-09-24T08:27:31.001Z</time>
      </trkpt>
      <trkpt lat="48.23366" lon="5.67013">
        <ele>315.286</ele>
        <time>2019-09-24T08:28:01.001Z</time>
      </trkpt>
      <trkpt lat="48.23224" lon="5.66947">
        <ele>317.747</ele>
        <time>2019-09-24T08:28:31.001Z</time>
      </trkpt>
      <trkpt lat="48.23082" lon="5.66884">
        <ele>316.8</ele>
        <time>2019-09-24T08:29:01.001Z</time>
      </trkpt>
      <trkpt lat="48.22957" lon="5.66829">
        <ele>319.438</ele>
        <time>2019-09-24T08:29:31.001Z</time>
      </trkpt>
      <trkpt lat="48.2287" lon="5.6679">
        <ele>322.782</ele>
        <time>2019-09-24T08:30:01.001Z</time>
      </trkpt>
      <trkpt lat="48.22753" lon="5.66761">
        <ele>322.133</ele>
        <time>2019-09-24T08:30:31.001Z</time>
      </trkpt>
      <trkpt lat="48.22614" lon="5.66734">
        <ele>318.976</ele>
        <time>2019-09-24T08:31:01.001Z</time>
      </trkpt>
      <trkpt lat="48.22488" lon="5.66562">
        <ele>313.426</ele>
        <time>2019-09-24T08:31:31.001Z</time>
      </trkpt>
      <trkpt lat="48.22452" lon="5.66348">
        <ele>314.156</ele>
        <time>2019-09-24T08:32:01.001Z</time>
      </trkpt>
      <trkpt lat="48.22529" lon="5.66241">
        <ele>322.273</ele>
        <time>2019-09-24T08:32:31.001Z</time>
      </trkpt>
      <trkpt lat="48.22576" lon="5.66184">
        <ele>325.853</ele>
        <time>2019-09-24T08:33:01.001Z</time>
      </trkpt>
      <trkpt lat="48.22582" lon="5.66077">
        <ele>331.817</ele>
        <time>2019-09-24T08:33:31.001Z</time>
      </trkpt>
      <trkpt lat="48.2263" lon="5.66052">
        <ele>336.542</ele>
        <time>2019-09-24T08:34:01.001Z</time>
      </trkpt>
      <trkpt lat="48.22681" lon="5.66064">
        <ele>335.74</ele>
        <time>2019-09-24T08:42:52.001Z</time>
      </trkpt>
      <trkpt lat="48.22808" lon="5.66097">
        <ele>336.253</ele>
        <time>2019-09-24T08:43:22.001Z</time>
      </trkpt>
      <trkpt lat="48.2289" lon="5.66126">
        <ele>335.938</ele>
        <time>2019-09-24T08:43:52.001Z</time>
      </trkpt>
      <trkpt lat="48.22957" lon="5.66114">
        <ele>338.318</ele>
        <time>2019-09-24T08:44:22.001Z</time>
      </trkpt>
      <trkpt lat="48.2301" lon="5.66077">
        <ele>342.275</ele>
        <time>2019-09-24T08:44:52.001Z</time>
      </trkpt>
      <trkpt lat="48.23057" lon="5.66035">
        <ele>348.15</ele>
        <time>2019-09-24T08:45:22.001Z</time>
      </trkpt>
      <trkpt lat="48.23116" lon="5.65992">
        <ele>348.559</ele>
        <time>2019-09-24T08:45:52.001Z</time>
      </trkpt>
      <trkpt lat="48.23169" lon="5.6596">
        <ele>353.677</ele>
        <time>2019-09-24T08:46:22.001Z</time>
      </trkpt>
      <trkpt lat="48.23215" lon="5.65918">
        <ele>358.739</ele>
        <time>2019-09-24T08:46:52.001Z</time>
      </trkpt>
      <trkpt lat="48.23178" lon="5.65859">
        <ele>366.614</ele>
        <time>2019-09-24T08:47:31.001Z</time>
      </trkpt>
      <trkpt lat="48.23116" lon="5.65861">
        <ele>374.462</ele>
        <time>2019-09-24T08:48:10.001Z</time>
      </trkpt>
      <trkpt lat="48.23053" lon="5.65849">
        <ele>379.915</ele>
        <time>2019-09-24T08:48:49.001Z</time>
      </trkpt>
      <trkpt lat="48.22999" lon="5.6583">
        <ele>387.233</ele>
        <time>2019-09-24T08:49:22.001Z</time>
      </trkpt>
      <trkpt lat="48.22938" lon="5.65786">
        <ele>390.033</ele>
        <time>2019-09-24T08:50:04.001Z</time>
      </trkpt>
      <trkpt lat="48.22884" lon="5.65726">
        <ele>397.172</ele>
        <time>2019-09-24T08:50:46.001Z</time>
      </trkpt>
      <trkpt lat="48.22835" lon="5.65663">
        <ele>402.359</ele>
        <time>2019-09-24T08:51:25.001Z</time>
      </trkpt>
      <trkpt lat="48.22796" lon="5.65608">
        <ele>400.731</ele>
        <time>2019-09-24T08:51:55.001Z</time>
      </trkpt>
      <trkpt lat="48.2277" lon="5.65517">
        <ele>405.755</ele>
        <time>2019-09-24T08:52:37.001Z</time>
      </trkpt>
      <trkpt lat="48.2276" lon="5.65434">
        <ele>407.442</ele>
        <time>2019-09-24T08:53:07.001Z</time>
      </trkpt>
      <trkpt lat="48.22747" lon="5.65345">
        <ele>415.129</ele>
        <time>2019-09-24T08:53:46.001Z</time>
      </trkpt>
      <trkpt lat="48.22731" lon="5.65271">
        <ele>419.722</ele>
        <time>2019-09-24T08:54:19.001Z</time>
      </trkpt>
      <trkpt lat="48.22709" lon="5.65193">
        <ele>421.097</ele>
        <time>2019-09-24T08:54:55.001Z</time>
      </trkpt>
      <trkpt lat="48.2267" lon="5.65126">
        <ele>420.208</ele>
        <time>2019-09-24T08:55:25.001Z</time>
      </trkpt>
      <trkpt lat="48.22634" lon="5.65071">
        <ele>418.929</ele>
        <time>2019-09-24T08:55:55.001Z</time>
      </trkpt>
      <trkpt lat="48.22607" lon="5.64998">
        <ele>418.943</ele>
        <time>2019-09-24T08:56:28.001Z</time>
      </trkpt>
      <trkpt lat="48.22608" lon="5.64921">
        <ele>426.344</ele>
        <time>2019-09-24T08:57:01.001Z</time>
      </trkpt>
      <trkpt lat="48.22644" lon="5.6483">
        <ele>437.956</ele>
        <time>2019-09-24T08:57:46.001Z</time>
      </trkpt>
      <trkpt lat="48.22667" lon="5.64745">
        <ele>436.449</ele>
        <time>2019-09-24T10:58:16Z</time>
      </trkpt>
      <trkpt lat="48.22673" lon="5.64658">
        <ele>436.207</ele>
        <time>2019-09-24T08:58:49.001Z</time>
      </trkpt>
      <trkpt lat="48.22675" lon="5.64654">
        <ele>435.01</ele>
        <time>2019-09-24T09:02:37.001Z</time>
      </trkpt>
      <trkpt lat="48.22677" lon="5.64479">
        <ele>435.746</ele>
        <time>2019-09-24T09:03:07.001Z</time>
      </trkpt>
      <trkpt lat="48.2281" lon="5.64112">
        <ele>430.165</ele>
        <time>2019-09-24T09:03:37.001Z</time>
      </trkpt>
      <trkpt lat="48.22807" lon="5.63506">
        <ele>403.049</ele>
        <time>2019-09-24T09:04:10.001Z</time>
      </trkpt>
      <trkpt lat="48.22838" lon="5.63017">
        <ele>383.632</ele>
        <time>2019-09-24T09:04:40.001Z</time>
      </trkpt>
      <trkpt lat="48.22853" lon="5.62497">
        <ele>363.706</ele>
        <time>2019-09-24T09:05:10.001Z</time>
      </trkpt>
      <trkpt lat="48.23064" lon="5.62028">
        <ele>345.081</ele>
        <time>2019-09-24T09:05:40.001Z</time>
      </trkpt>
      <trkpt lat="48.23109" lon="5.61619">
        <ele>333.865</ele>
        <time>2019-09-24T09:06:10.001Z</time>
      </trkpt>
      <trkpt lat="48.23382" lon="5.61318">
        <ele>319.192</ele>
        <time>2019-09-24T09:06:40.001Z</time>
      </trkpt>
      <trkpt lat="48.23585" lon="5.61294">
        <ele>311.461</ele>
        <time>2019-09-24T09:07:10.001Z</time>
      </trkpt>
      <trkpt lat="48.23782" lon="5.61185">
        <ele>305.608</ele>
        <time>2019-09-24T09:07:40.001Z</time>
      </trkpt>
      <trkpt lat="48.23788" lon="5.60984">
        <ele>307.198</ele>
        <time>2019-09-24T09:08:10.001Z</time>
      </trkpt>
      <trkpt lat="48.23787" lon="5.60937">
        <ele>310.17</ele>
        <time>2019-09-24T09:08:43.001Z</time>
      </trkpt>
      <trkpt lat="48.23786" lon="5.60944">
        <ele>308.342</ele>
        <time>2019-09-24T09:10:25.001Z</time>
      </trkpt>
      <trkpt lat="48.23783" lon="5.61133">
        <ele>311.132</ele>
        <time>2019-09-24T09:10:58.001Z</time>
      </trkpt>
      <trkpt lat="48.23703" lon="5.61237">
        <ele>306.389</ele>
        <time>2019-09-24T09:11:28.001Z</time>
      </trkpt>
      <trkpt lat="48.23649" lon="5.61254">
        <ele>307.397</ele>
        <time>2019-09-24T09:12:49.001Z</time>
      </trkpt>
      <trkpt lat="48.236" lon="5.61284">
        <ele>308.396</ele>
        <time>2019-09-24T09:13:31.001Z</time>
      </trkpt>
      <trkpt lat="48.23529" lon="5.61301">
        <ele>313.648</ele>
        <time>2019-09-24T09:14:01.001Z</time>
      </trkpt>
      <trkpt lat="48.23458" lon="5.61328">
        <ele>316.036</ele>
        <time>2019-09-24T09:14:34.001Z</time>
      </trkpt>
      <trkpt lat="48.23395" lon="5.61257">
        <ele>314.299</ele>
        <time>2019-09-24T09:15:04.001Z</time>
      </trkpt>
      <trkpt lat="48.2328" lon="5.61169">
        <ele>311.009</ele>
        <time>2019-09-24T09:15:34.001Z</time>
      </trkpt>
      <trkpt lat="48.23184" lon="5.61106">
        <ele>312.817</ele>
        <time>2019-09-24T09:16:04.001Z</time>
      </trkpt>
      <trkpt lat="48.23087" lon="5.61054">
        <ele>313.204</ele>
        <time>2019-09-24T09:16:34.001Z</time>
      </trkpt>
      <trkpt lat="48.23" lon="5.6101">
        <ele>317.057</ele>
        <time>2019-09-24T09:17:04.001Z</time>
      </trkpt>
      <trkpt lat="48.22871" lon="5.60978">
        <ele>314.926</ele>
        <time>2019-09-24T09:17:34.001Z</time>
      </trkpt>
      <trkpt lat="48.22763" lon="5.60982">
        <ele>314.378</ele>
        <time>2019-09-24T09:18:07.001Z</time>
      </trkpt>
      <trkpt lat="48.22669" lon="5.61004">
        <ele>316.416</ele>
        <time>2019-09-24T09:18:37.001Z</time>
      </trkpt>
      <trkpt lat="48.22554" lon="5.61027">
        <ele>315.359</ele>
        <time>2019-09-24T09:19:07.001Z</time>
      </trkpt>
      <trkpt lat="48.22442" lon="5.61023">
        <ele>315.119</ele>
        <time>2019-09-24T09:19:37.001Z</time>
      </trkpt>
      <trkpt lat="48.22322" lon="5.60985">
        <ele>314.562</ele>
        <time>2019-09-24T09:20:07.001Z</time>
      </trkpt>
      <trkpt lat="48.22211" lon="5.60908">
        <ele>315.787</ele>
        <time>2019-09-24T09:20:37.001Z</time>
      </trkpt>
      <trkpt lat="48.22107" lon="5.608">
        <ele>314.666</ele>
        <time>2019-09-24T09:21:07.001Z</time>
      </trkpt>
      <trkpt lat="48.22036" lon="5.60685">
        <ele>312.426</ele>
        <time>2019-09-24T09:21:37.001Z</time>
      </trkpt>
      <trkpt lat="48.22004" lon="5.60609">
        <ele>319.125</ele>
        <time>2019-09-24T09:22:07.001Z</time>
      </trkpt>
      <trkpt lat="48.21959" lon="5.60516">
        <ele>318.546</ele>
        <time>2019-09-24T09:22:37.001Z</time>
      </trkpt>
      <trkpt lat="48.21917" lon="5.6042">
        <ele>320.462</ele>
        <time>2019-09-24T09:23:07.001Z</time>
      </trkpt>
      <trkpt lat="48.21859" lon="5.60295">
        <ele>318.939</ele>
        <time>2019-09-24T09:23:37.001Z</time>
      </trkpt>
      <trkpt lat="48.21804" lon="5.60197">
        <ele>320.383</ele>
        <time>2019-09-24T09:24:07.001Z</time>
      </trkpt>
      <trkpt lat="48.21746" lon="5.60123">
        <ele>320.886</ele>
        <time>2019-09-24T09:24:37.001Z</time>
      </trkpt>
      <trkpt lat="48.21672" lon="5.60052">
        <ele>320.501</ele>
        <time>2019-09-24T09:25:07.001Z</time>
      </trkpt>
      <trkpt lat="48.21574" lon="5.59985">
        <ele>320.054</ele>
        <time>2019-09-24T09:25:37.001Z</time>
      </trkpt>
      <trkpt lat="48.21484" lon="5.59945">
        <ele>323.484</ele>
        <time>2019-09-24T09:26:07.001Z</time>
      </trkpt>
      <trkpt lat="48.21396" lon="5.59932">
        <ele>325.033</ele>
        <time>2019-09-24T09:26:37.001Z</time>
      </trkpt>
      <trkpt lat="48.21302" lon="5.5992">
        <ele>323.364</ele>
        <time>2019-09-24T09:27:07.001Z</time>
      </trkpt>
      <trkpt lat="48.21219" lon="5.59907">
        <ele>325.338</ele>
        <time>2019-09-24T09:27:37.001Z</time>
      </trkpt>
      <trkpt lat="48.21133" lon="5.59868">
        <ele>326.531</ele>
        <time>2019-09-24T09:28:07.001Z</time>
      </trkpt>
      <trkpt lat="48.21152" lon="5.5975">
        <ele>318.52</ele>
        <time>2019-09-24T09:28:37.001Z</time>
      </trkpt>
      <trkpt lat="48.20973" lon="5.59681">
        <ele>315.933</ele>
        <time>2019-09-24T09:29:07.001Z</time>
      </trkpt>
      <trkpt lat="48.20842" lon="5.59648">
        <ele>312.086</ele>
        <time>2019-09-24T09:29:40.001Z</time>
      </trkpt>
      <trkpt lat="48.20713" lon="5.59591">
        <ele>312.021</ele>
        <time>2019-09-24T09:30:10.001Z</time>
      </trkpt>
      <trkpt lat="48.20625" lon="5.59545">
        <ele>316.582</ele>
        <time>2019-09-24T09:30:40.001Z</time>
      </trkpt>
      <trkpt lat="48.20523" lon="5.59456">
        <ele>316.751</ele>
        <time>2019-09-24T09:31:10.001Z</time>
      </trkpt>
      <trkpt lat="48.20392" lon="5.59356">
        <ele>316.162</ele>
        <time>2019-09-24T09:31:40.001Z</time>
      </trkpt>
      <trkpt lat="48.20306" lon="5.59342">
        <ele>320.65</ele>
        <time>2019-09-24T11:32:16Z</time>
      </trkpt>
      <trkpt lat="48.2025" lon="5.59332">
        <ele>324.931</ele>
        <time>2019-09-24T11:33:16Z</time>
      </trkpt>
      <trkpt lat="48.20228" lon="5.59329">
        <ele>327.354</ele>
        <time>2019-09-24T09:35:13.001Z</time>
      </trkpt>
      <trkpt lat="48.20182" lon="5.59345">
        <ele>330.039</ele>
        <time>2019-09-24T09:40:19.001Z</time>
      </trkpt>
      <trkpt lat="48.20125" lon="5.59365">
        <ele>332.45</ele>
        <time>2019-09-24T09:40:49.001Z</time>
      </trkpt>
      <trkpt lat="48.20061" lon="5.59391">
        <ele>334.057</ele>
        <time>2019-09-24T09:41:19.001Z</time>
      </trkpt>
      <trkpt lat="48.19986" lon="5.59385">
        <ele>336.792</ele>
        <time>2019-09-24T09:41:49.001Z</time>
      </trkpt>
      <trkpt lat="48.19917" lon="5.59343">
        <ele>338.077</ele>
        <time>2019-09-24T09:42:19.001Z</time>
      </trkpt>
      <trkpt lat="48.19945" lon="5.59228">
        <ele>337.861</ele>
        <time>2019-09-24T09:42:49.001Z</time>
      </trkpt>
      <trkpt lat="48.20012" lon="5.59091">
        <ele>334.248</ele>
        <time>2019-09-24T09:43:19.001Z</time>
      </trkpt>
      <trkpt lat="48.19962" lon="5.58956">
        <ele>335.798</ele>
        <time>2019-09-24T09:43:49.001Z</time>
      </trkpt>
      <trkpt lat="48.1999" lon="5.58753">
        <ele>329.747</ele>
        <time>2019-09-24T09:44:19.001Z</time>
      </trkpt>
      <trkpt lat="48.20046" lon="5.58603">
        <ele>325.717</ele>
        <time>2019-09-24T09:44:49.001Z</time>
      </trkpt>
      <trkpt lat="48.19991" lon="5.58456">
        <ele>322.373</ele>
        <time>2019-09-24T09:45:19.001Z</time>
      </trkpt>
      <trkpt lat="48.19919" lon="5.58484">
        <ele>327.147</ele>
        <time>2019-09-24T09:45:49.001Z</time>
      </trkpt>
      <trkpt lat="48.19881" lon="5.58547">
        <ele>336.105</ele>
        <time>2019-09-24T09:46:22.001Z</time>
      </trkpt>
      <trkpt lat="48.19879" lon="5.58549">
        <ele>334.759</ele>
        <time>2019-09-24T09:51:25.001Z</time>
      </trkpt>
      <trkpt lat="48.19878" lon="5.58548">
        <ele>334.623</ele>
        <time>2019-09-24T09:53:10.001Z</time>
      </trkpt>
      <trkpt lat="48.1988" lon="5.58548">
        <ele>334.7</ele>
        <time>2019-09-24T09:59:40.001Z</time>
      </trkpt>
      <trkpt lat="48.19879" lon="5.58549">
        <ele>335.043</ele>
        <time>2019-09-24T10:06:55.001Z</time>
      </trkpt>
      <trkpt lat="48.19878" lon="5.58549">
        <ele>331.642</ele>
        <time>2019-09-24T10:09:19.001Z</time>
      </trkpt>
      <trkpt lat="48.19878" lon="5.58551">
        <ele>331.817</ele>
        <time>2019-09-24T10:10:40.001Z</time>
      </trkpt>
      <trkpt lat="48.19828" lon="5.58487">
        <ele>334.895</ele>
        <time>2019-09-24T10:11:55.001Z</time>
      </trkpt>
      <trkpt lat="48.19756" lon="5.58451">
        <ele>337.375</ele>
        <time>2019-09-24T10:12:25.001Z</time>
      </trkpt>
      <trkpt lat="48.19688" lon="5.58422">
        <ele>345.23</ele>
        <time>2019-09-24T10:12:55.001Z</time>
      </trkpt>
      <trkpt lat="48.19624" lon="5.58392">
        <ele>347.878</ele>
        <time>2019-09-24T10:13:25.001Z</time>
      </trkpt>
      <trkpt lat="48.19564" lon="5.58366">
        <ele>350.288</ele>
        <time>2019-09-24T10:13:55.001Z</time>
      </trkpt>
      <trkpt lat="48.19502" lon="5.58337">
        <ele>350.629</ele>
        <time>2019-09-24T10:14:25.001Z</time>
      </trkpt>
      <trkpt lat="48.19442" lon="5.58309">
        <ele>355.649</ele>
        <time>2019-09-24T10:14:55.001Z</time>
      </trkpt>
      <trkpt lat="48.19383" lon="5.58283">
        <ele>359.224</ele>
        <time>2019-09-24T10:15:25.001Z</time>
      </trkpt>
      <trkpt lat="48.19328" lon="5.58259">
        <ele>362.81</ele>
        <time>2019-09-24T10:15:55.001Z</time>
      </trkpt>
      <trkpt lat="48.19266" lon="5.58236">
        <ele>366.752</ele>
        <time>2019-09-24T10:16:25.001Z</time>
      </trkpt>
      <trkpt lat="48.19204" lon="5.58213">
        <ele>368.444</ele>
        <time>2019-09-24T10:16:55.001Z</time>
      </trkpt>
      <trkpt lat="48.19142" lon="5.58201">
        <ele>369.873</ele>
        <time>2019-09-24T10:17:25.001Z</time>
      </trkpt>
      <trkpt lat="48.19078" lon="5.58207">
        <ele>377.261</ele>
        <time>2019-09-24T10:17:55.001Z</time>
      </trkpt>
      <trkpt lat="48.18987" lon="5.5816">
        <ele>379.127</ele>
        <time>2019-09-24T10:18:25.001Z</time>
      </trkpt>
      <trkpt lat="48.18719" lon="5.58131">
        <ele>365.18</ele>
        <time>2019-09-24T10:18:55.001Z</time>
      </trkpt>
      <trkpt lat="48.18397" lon="5.58283">
        <ele>339.787</ele>
        <time>2019-09-24T10:19:25.001Z</time>
      </trkpt>
      <trkpt lat="48.18061" lon="5.58113">
        <ele>311.424</ele>
        <time>2019-09-24T10:19:55.001Z</time>
      </trkpt>
      <trkpt lat="48.1788" lon="5.58081">
        <ele>310.076</ele>
        <time>2019-09-24T10:20:25.001Z</time>
      </trkpt>
      <trkpt lat="48.17855" lon="5.5792">
        <ele>316.211</ele>
        <time>2019-09-24T10:20:55.001Z</time>
      </trkpt>
      <trkpt lat="48.17738" lon="5.57805">
        <ele>313.953</ele>
        <time>2019-09-24T10:21:28.001Z</time>
      </trkpt>
      <trkpt lat="48.17595" lon="5.57757">
        <ele>314.765</ele>
        <time>2019-09-24T10:21:58.001Z</time>
      </trkpt>
      <trkpt lat="48.17467" lon="5.57685">
        <ele>315.307</ele>
        <time>2019-09-24T10:22:28.001Z</time>
      </trkpt>
      <trkpt lat="48.17347" lon="5.57615">
        <ele>311.026</ele>
        <time>2019-09-24T10:22:58.001Z</time>
      </trkpt>
      <trkpt lat="48.17252" lon="5.57519">
        <ele>311.052</ele>
        <time>2019-09-24T10:23:28.001Z</time>
      </trkpt>
      <trkpt lat="48.17148" lon="5.57403">
        <ele>314.693</ele>
        <time>2019-09-24T10:23:58.001Z</time>
      </trkpt>
      <trkpt lat="48.17041" lon="5.57314">
        <ele>317.51</ele>
        <time>2019-09-24T10:24:28.001Z</time>
      </trkpt>
      <trkpt lat="48.16908" lon="5.57311">
        <ele>315.335</ele>
        <time>2019-09-24T10:24:58.001Z</time>
      </trkpt>
      <trkpt lat="48.16795" lon="5.57337">
        <ele>315.582</ele>
        <time>2019-09-24T10:25:28.001Z</time>
      </trkpt>
      <trkpt lat="48.16688" lon="5.57348">
        <ele>317.917</ele>
        <time>2019-09-24T10:25:58.001Z</time>
      </trkpt>
      <trkpt lat="48.16611" lon="5.57399">
        <ele>320.851</ele>
        <time>2019-09-24T10:26:28.001Z</time>
      </trkpt>
      <trkpt lat="48.16538" lon="5.57406">
        <ele>322.885</ele>
        <time>2019-09-24T10:26:58.001Z</time>
      </trkpt>
      <trkpt lat="48.16465" lon="5.57414">
        <ele>329.074</ele>
        <time>2019-09-24T10:27:28.001Z</time>
      </trkpt>
      <trkpt lat="48.16372" lon="5.57411">
        <ele>337.281</ele>
        <time>2019-09-24T10:27:58.001Z</time>
      </trkpt>
      <trkpt lat="48.16256" lon="5.57253">
        <ele>333.074</ele>
        <time>2019-09-24T10:28:28.001Z</time>
      </trkpt>
      <trkpt lat="48.16057" lon="5.57159">
        <ele>314.31</ele>
        <time>2019-09-24T10:28:58.001Z</time>
      </trkpt>
      <trkpt lat="48.1589" lon="5.57085">
        <ele>312.613</ele>
        <time>2019-09-24T10:29:28.001Z</time>
      </trkpt>
      <trkpt lat="48.15749" lon="5.57007">
        <ele>314.306</ele>
        <time>2019-09-24T10:29:58.001Z</time>
      </trkpt>
      <trkpt lat="48.15622" lon="5.56921">
        <ele>317.348</ele>
        <time>2019-09-24T10:30:28.001Z</time>
      </trkpt>
      <trkpt lat="48.15505" lon="5.5684">
        <ele>317.391</ele>
        <time>2019-09-24T10:30:58.001Z</time>
      </trkpt>
      <trkpt lat="48.15397" lon="5.56772">
        <ele>320.653</ele>
        <time>2019-09-24T10:31:28.001Z</time>
      </trkpt>
      <trkpt lat="48.15288" lon="5.56731">
        <ele>321.601</ele>
        <time>2019-09-24T10:31:58.001Z</time>
      </trkpt>
      <trkpt lat="48.15166" lon="5.56698">
        <ele>323.709</ele>
        <time>2019-09-24T10:32:28.001Z</time>
      </trkpt>
      <trkpt lat="48.15072" lon="5.56751">
        <ele>322.66</ele>
        <time>2019-09-24T10:33:01.001Z</time>
      </trkpt>
      <trkpt lat="48.15057" lon="5.5685">
        <ele>327.623</ele>
        <time>2019-09-24T10:33:31.001Z</time>
      </trkpt>
      <trkpt lat="48.15013" lon="5.56928">
        <ele>331.583</ele>
        <time>2019-09-24T10:34:01.001Z</time>
      </trkpt>
      <trkpt lat="48.14948" lon="5.57036">
        <ele>335.817</ele>
        <time>2019-09-24T10:34:31.001Z</time>
      </trkpt>
      <trkpt lat="48.14899" lon="5.57178">
        <ele>339.021</ele>
        <time>2019-09-24T10:35:01.001Z</time>
      </trkpt>
      <trkpt lat="48.14813" lon="5.57146">
        <ele>340.374</ele>
        <time>2019-09-24T10:35:31.001Z</time>
      </trkpt>
      <trkpt lat="48.14715" lon="5.56771">
        <ele>314.018</ele>
        <time>2019-09-24T10:36:01.001Z</time>
      </trkpt>
      <trkpt lat="48.14681" lon="5.56537">
        <ele>311.498</ele>
        <time>2019-09-24T10:36:31.001Z</time>
      </trkpt>
      <trkpt lat="48.14606" lon="5.56383">
        <ele>317.502</ele>
        <time>2019-09-24T10:37:01.001Z</time>
      </trkpt>
      <trkpt lat="48.14514" lon="5.56281">
        <ele>320.778</ele>
        <time>2019-09-24T10:37:31.001Z</time>
      </trkpt>
      <trkpt lat="48.14432" lon="5.56163">
        <ele>327.483</ele>
        <time>2019-09-24T10:38:01.001Z</time>
      </trkpt>
      <trkpt lat="48.14297" lon="5.56007">
        <ele>321.675</ele>
        <time>2019-09-24T10:38:31.001Z</time>
      </trkpt>
      <trkpt lat="48.14175" lon="5.55975">
        <ele>319.292</ele>
        <time>2019-09-24T10:39:01.001Z</time>
      </trkpt>
      <trkpt lat="48.14125" lon="5.56048">
        <ele>323.189</ele>
        <time>2019-09-24T10:39:31.001Z</time>
      </trkpt>
      <trkpt lat="48.14066" lon="5.56084">
        <ele>328.867</ele>
        <time>2019-09-24T10:40:01.001Z</time>
      </trkpt>
      <trkpt lat="48.13972" lon="5.56184">
        <ele>324.393</ele>
        <time>2019-09-24T10:40:31.001Z</time>
      </trkpt>
      <trkpt lat="48.13923" lon="5.56278">
        <ele>329.087</ele>
        <time>2019-09-24T10:41:01.001Z</time>
      </trkpt>
      <trkpt lat="48.13867" lon="5.5638">
        <ele>335.456</ele>
        <time>2019-09-24T10:41:31.001Z</time>
      </trkpt>
      <trkpt lat="48.13795" lon="5.56444">
        <ele>338.191</ele>
        <time>2019-09-24T10:42:01.001Z</time>
      </trkpt>
      <trkpt lat="48.13717" lon="5.56502">
        <ele>337.55</ele>
        <time>2019-09-24T10:42:31.001Z</time>
      </trkpt>
      <trkpt lat="48.13606" lon="5.56596">
        <ele>337.122</ele>
        <time>2019-09-24T10:43:01.001Z</time>
      </trkpt>
      <trkpt lat="48.13458" lon="5.56672">
        <ele>329.164</ele>
        <time>2019-09-24T10:43:31.001Z</time>
      </trkpt>
      <trkpt lat="48.13284" lon="5.56755">
        <ele>325.422</ele>
        <time>2019-09-24T10:44:01.001Z</time>
      </trkpt>
      <trkpt lat="48.13085" lon="5.56823">
        <ele>317.558</ele>
        <time>2019-09-24T10:44:34.001Z</time>
      </trkpt>
      <trkpt lat="48.12986" lon="5.56846">
        <ele>317.135</ele>
        <time>2019-09-24T10:45:04.001Z</time>
      </trkpt>
      <trkpt lat="48.12897" lon="5.56863">
        <ele>318.866</ele>
        <time>2019-09-24T10:45:34.001Z</time>
      </trkpt>
      <trkpt lat="48.12823" lon="5.56871">
        <ele>320.133</ele>
        <time>2019-09-24T10:46:04.001Z</time>
      </trkpt>
      <trkpt lat="48.12755" lon="5.56875">
        <ele>321.31</ele>
        <time>2019-09-24T10:46:34.001Z</time>
      </trkpt>
      <trkpt lat="48.127" lon="5.56842">
        <ele>329.715</ele>
        <time>2019-09-24T10:47:04.001Z</time>
      </trkpt>
      <trkpt lat="48.12623" lon="5.56794">
        <ele>340.873</ele>
        <time>2019-09-24T10:47:34.001Z</time>
      </trkpt>
      <trkpt lat="48.12449" lon="5.56744">
        <ele>336.604</ele>
        <time>2019-09-24T10:48:04.001Z</time>
      </trkpt>
      <trkpt lat="48.12328" lon="5.56828">
        <ele>321.616</ele>
        <time>2019-09-24T10:48:34.001Z</time>
      </trkpt>
      <trkpt lat="48.12224" lon="5.56969">
        <ele>324.794</ele>
        <time>2019-09-24T10:49:04.001Z</time>
      </trkpt>
      <trkpt lat="48.12152" lon="5.57173">
        <ele>330.778</ele>
        <time>2019-09-24T10:49:34.001Z</time>
      </trkpt>
      <trkpt lat="48.12101" lon="5.57359">
        <ele>331.59</ele>
        <time>2019-09-24T10:50:04.001Z</time>
      </trkpt>
      <trkpt lat="48.12044" lon="5.5757">
        <ele>328.596</ele>
        <time>2019-09-24T10:50:34.001Z</time>
      </trkpt>
      <trkpt lat="48.11977" lon="5.57797">
        <ele>327.214</ele>
        <time>2019-09-24T10:51:04.001Z</time>
      </trkpt>
      <trkpt lat="48.11925" lon="5.58002">
        <ele>326.945</ele>
        <time>2019-09-24T10:51:34.001Z</time>
      </trkpt>
      <trkpt lat="48.11873" lon="5.58186">
        <ele>327.445</ele>
        <time>2019-09-24T10:52:04.001Z</time>
      </trkpt>
      <trkpt lat="48.11815" lon="5.58353">
        <ele>327.675</ele>
        <time>2019-09-24T10:52:34.001Z</time>
      </trkpt>
      <trkpt lat="48.11742" lon="5.58481">
        <ele>329.144</ele>
        <time>2019-09-24T10:53:04.001Z</time>
      </trkpt>
      <trkpt lat="48.11648" lon="5.58587">
        <ele>327.682</ele>
        <time>2019-09-24T10:53:34.001Z</time>
      </trkpt>
      <trkpt lat="48.11539" lon="5.58655">
        <ele>329.947</ele>
        <time>2019-09-24T10:54:04.001Z</time>
      </trkpt>
      <trkpt lat="48.11388" lon="5.58704">
        <ele>324.096</ele>
        <time>2019-09-24T10:54:34.001Z</time>
      </trkpt>
      <trkpt lat="48.11214" lon="5.58791">
        <ele>319.918</ele>
        <time>2019-09-24T10:55:04.001Z</time>
      </trkpt>
      <trkpt lat="48.11134" lon="5.58891">
        <ele>325.442</ele>
        <time>2019-09-24T10:55:34.001Z</time>
      </trkpt>
      <trkpt lat="48.11076" lon="5.59032">
        <ele>326.867</ele>
        <time>2019-09-24T10:56:07.001Z</time>
      </trkpt>
      <trkpt lat="48.1104" lon="5.59164">
        <ele>330.185</ele>
        <time>2019-09-24T10:56:37.001Z</time>
      </trkpt>
      <trkpt lat="48.11003" lon="5.59281">
        <ele>331.159</ele>
        <time>2019-09-24T10:57:07.001Z</time>
      </trkpt>
      <trkpt lat="48.10962" lon="5.59387">
        <ele>332.749</ele>
        <time>2019-09-24T10:57:37.001Z</time>
      </trkpt>
      <trkpt lat="48.10873" lon="5.59447">
        <ele>333.286</ele>
        <time>2019-09-24T10:58:07.001Z</time>
      </trkpt>
      <trkpt lat="48.10728" lon="5.59555">
        <ele>330.649</ele>
        <time>2019-09-24T10:58:37.001Z</time>
      </trkpt>
      <trkpt lat="48.10598" lon="5.59667">
        <ele>326.877</ele>
        <time>2019-09-24T10:59:07.001Z</time>
      </trkpt>
      <trkpt lat="48.10523" lon="5.59792">
        <ele>328.926</ele>
        <time>2019-09-24T10:59:37.001Z</time>
      </trkpt>
      <trkpt lat="48.1045" lon="5.59872">
        <ele>329.845</ele>
        <time>2019-09-24T11:00:07.001Z</time>
      </trkpt>
      <trkpt lat="48.10391" lon="5.59937">
        <ele>335.739</ele>
        <time>2019-09-24T11:00:37.001Z</time>
      </trkpt>
      <trkpt lat="48.10334" lon="5.59983">
        <ele>339.432</ele>
        <time>2019-09-24T11:01:07.001Z</time>
      </trkpt>
      <trkpt lat="48.10264" lon="5.60007">
        <ele>339.74</ele>
        <time>2019-09-24T11:01:37.001Z</time>
      </trkpt>
      <trkpt lat="48.10187" lon="5.60037">
        <ele>341.033</ele>
        <time>2019-09-24T11:02:07.001Z</time>
      </trkpt>
      <trkpt lat="48.10083" lon="5.60112">
        <ele>342.5</ele>
        <time>2019-09-24T11:02:37.001Z</time>
      </trkpt>
      <trkpt lat="48.09829" lon="5.60331">
        <ele>330.42</ele>
        <time>2019-09-24T11:03:07.001Z</time>
      </trkpt>
      <trkpt lat="48.09637" lon="5.60427">
        <ele>326.955</ele>
        <time>2019-09-24T11:03:37.001Z</time>
      </trkpt>
      <trkpt lat="48.09519" lon="5.60371">
        <ele>324.596</ele>
        <time>2019-09-24T11:04:07.001Z</time>
      </trkpt>
      <trkpt lat="48.09471" lon="5.60305">
        <ele>321.581</ele>
        <time>2019-09-24T11:06:10.001Z</time>
      </trkpt>
      <trkpt lat="48.0939" lon="5.60206">
        <ele>322.298</ele>
        <time>2019-09-24T11:06:40.001Z</time>
      </trkpt>
      <trkpt lat="48.09325" lon="5.60076">
        <ele>324.733</ele>
        <time>2019-09-24T11:07:10.001Z</time>
      </trkpt>
      <trkpt lat="48.09299" lon="5.59928">
        <ele>326.13</ele>
        <time>2019-09-24T11:07:40.001Z</time>
      </trkpt>
      <trkpt lat="48.0921" lon="5.59765">
        <ele>323.844</ele>
        <time>2019-09-24T11:08:10.001Z</time>
      </trkpt>
      <trkpt lat="48.09158" lon="5.59571">
        <ele>321.376</ele>
        <time>2019-09-24T11:08:40.001Z</time>
      </trkpt>
      <trkpt lat="48.09112" lon="5.59447">
        <ele>323.503</ele>
        <time>2019-09-24T11:09:13.001Z</time>
      </trkpt>
      <trkpt lat="48.09111" lon="5.59446">
        <ele>325.555</ele>
        <time>2019-09-24T11:18:22.001Z</time>
      </trkpt>
      <trkpt lat="48.09078" lon="5.59407">
        <ele>328.242</ele>
        <time>2019-09-24T11:19:04.001Z</time>
      </trkpt>
      <trkpt lat="48.09079" lon="5.59404">
        <ele>326.723</ele>
        <time>2019-09-24T11:20:22.001Z</time>
      </trkpt>
      <trkpt lat="48.09069" lon="5.59393">
        <ele>328.407</ele>
        <time>2019-09-24T11:22:19.001Z</time>
      </trkpt>
      <trkpt lat="48.09008" lon="5.59326">
        <ele>330.876</ele>
        <time>2019-09-24T11:22:49.001Z</time>
      </trkpt>
      <trkpt lat="48.08943" lon="5.59279">
        <ele>333.484</ele>
        <time>2019-09-24T11:23:19.001Z</time>
      </trkpt>
      <trkpt lat="48.08878" lon="5.59239">
        <ele>336.034</ele>
        <time>2019-09-24T11:23:49.001Z</time>
      </trkpt>
      <trkpt lat="48.08822" lon="5.59173">
        <ele>338.211</ele>
        <time>2019-09-24T11:24:19.001Z</time>
      </trkpt>
      <trkpt lat="48.08762" lon="5.59095">
        <ele>341.943</ele>
        <time>2019-09-24T11:24:49.001Z</time>
      </trkpt>
      <trkpt lat="48.0865" lon="5.58924">
        <ele>338.08</ele>
        <time>2019-09-24T11:25:19.001Z</time>
      </trkpt>
      <trkpt lat="48.08517" lon="5.58685">
        <ele>329.644</ele>
        <time>2019-09-24T11:25:49.001Z</time>
      </trkpt>
      <trkpt lat="48.08456" lon="5.58507">
        <ele>324.303</ele>
        <time>2019-09-24T11:26:19.001Z</time>
      </trkpt>
      <trkpt lat="48.08402" lon="5.58347">
        <ele>325.793</ele>
        <time>2019-09-24T11:26:49.001Z</time>
      </trkpt>
      <trkpt lat="48.08355" lon="5.58206">
        <ele>326.256</ele>
        <time>2019-09-24T11:27:19.001Z</time>
      </trkpt>
      <trkpt lat="48.08309" lon="5.5805">
        <ele>327.725</ele>
        <time>2019-09-24T11:27:49.001Z</time>
      </trkpt>
      <trkpt lat="48.08264" lon="5.57898">
        <ele>329.326</ele>
        <time>2019-09-24T11:28:19.001Z</time>
      </trkpt>
      <trkpt lat="48.08199" lon="5.57774">
        <ele>332.508</ele>
        <time>2019-09-24T11:28:49.001Z</time>
      </trkpt>
      <trkpt lat="48.08119" lon="5.5767">
        <ele>332.53</ele>
        <time>2019-09-24T11:29:19.001Z</time>
      </trkpt>
      <trkpt lat="48.08023" lon="5.57591">
        <ele>332.934</ele>
        <time>2019-09-24T11:29:49.001Z</time>
      </trkpt>
      <trkpt lat="48.07926" lon="5.57534">
        <ele>334.904</ele>
        <time>2019-09-24T11:30:19.001Z</time>
      </trkpt>
      <trkpt lat="48.07826" lon="5.57484">
        <ele>335.823</ele>
        <time>2019-09-24T11:30:49.001Z</time>
      </trkpt>
      <trkpt lat="48.07728" lon="5.57455">
        <ele>336.016</ele>
        <time>2019-09-24T11:31:19.001Z</time>
      </trkpt>
      <trkpt lat="48.07627" lon="5.57338">
        <ele>335.818</ele>
        <time>2019-09-24T11:31:52.001Z</time>
      </trkpt>
      <trkpt lat="48.07531" lon="5.57224">
        <ele>333.611</ele>
        <time>2019-09-24T11:32:22.001Z</time>
      </trkpt>
      <trkpt lat="48.07438" lon="5.57129">
        <ele>338.317</ele>
        <time>2019-09-24T11:32:52.001Z</time>
      </trkpt>
      <trkpt lat="48.07356" lon="5.57043">
        <ele>340.681</ele>
        <time>2019-09-24T11:33:22.001Z</time>
      </trkpt>
      <trkpt lat="48.07302" lon="5.56938">
        <ele>341.595</ele>
        <time>2019-09-24T11:33:52.001Z</time>
      </trkpt>
      <trkpt lat="48.07221" lon="5.56822">
        <ele>341.294</ele>
        <time>2019-09-24T11:34:22.001Z</time>
      </trkpt>
      <trkpt lat="48.07131" lon="5.56642">
        <ele>340.816</ele>
        <time>2019-09-24T11:34:52.001Z</time>
      </trkpt>
      <trkpt lat="48.0705" lon="5.56482">
        <ele>342.672</ele>
        <time>2019-09-24T11:35:22.001Z</time>
      </trkpt>
      <trkpt lat="48.07003" lon="5.56334">
        <ele>342.584</ele>
        <time>2019-09-24T11:35:52.001Z</time>
      </trkpt>
      <trkpt lat="48.06975" lon="5.56183">
        <ele>341.176</ele>
        <time>2019-09-24T11:36:22.001Z</time>
      </trkpt>
      <trkpt lat="48.06881" lon="5.56061">
        <ele>343.623</ele>
        <time>2019-09-24T11:36:52.001Z</time>
      </trkpt>
      <trkpt lat="48.06783" lon="5.55895">
        <ele>345.872</ele>
        <time>2019-09-24T11:37:22.001Z</time>
      </trkpt>
      <trkpt lat="48.06724" lon="5.55681">
        <ele>339.437</ele>
        <time>2019-09-24T11:37:52.001Z</time>
      </trkpt>
      <trkpt lat="48.06676" lon="5.55454">
        <ele>339.14</ele>
        <time>2019-09-24T11:38:22.001Z</time>
      </trkpt>
      <trkpt lat="48.06529" lon="5.55448">
        <ele>329.97</ele>
        <time>2019-09-24T11:38:52.001Z</time>
      </trkpt>
      <trkpt lat="48.06395" lon="5.55456">
        <ele>328.326</ele>
        <time>2019-09-24T11:39:22.001Z</time>
      </trkpt>
      <trkpt lat="48.06321" lon="5.55275">
        <ele>325.801</ele>
        <time>2019-09-24T11:39:52.001Z</time>
      </trkpt>
      <trkpt lat="48.06218" lon="5.55172">
        <ele>326.558</ele>
        <time>2019-09-24T11:40:22.001Z</time>
      </trkpt>
      <trkpt lat="48.06136" lon="5.55103">
        <ele>329.824</ele>
        <time>2019-09-24T11:40:52.001Z</time>
      </trkpt>
      <trkpt lat="48.06055" lon="5.55029">
        <ele>332.607</ele>
        <time>2019-09-24T11:41:22.001Z</time>
      </trkpt>
      <trkpt lat="48.06013" lon="5.54893">
        <ele>329.143</ele>
        <time>2019-09-24T11:41:52.001Z</time>
      </trkpt>
      <trkpt lat="48.05944" lon="5.54754">
        <ele>330.55</ele>
        <time>2019-09-24T11:42:22.001Z</time>
      </trkpt>
      <trkpt lat="48.05907" lon="5.54604">
        <ele>328.586</ele>
        <time>2019-09-24T11:42:52.001Z</time>
      </trkpt>
      <trkpt lat="48.05793" lon="5.54557">
        <ele>328.211</ele>
        <time>2019-09-24T11:43:25.001Z</time>
      </trkpt>
      <trkpt lat="48.05708" lon="5.54542">
        <ele>331.972</ele>
        <time>2019-09-24T11:43:55.001Z</time>
      </trkpt>
      <trkpt lat="48.0564" lon="5.54544">
        <ele>335.969</ele>
        <time>2019-09-24T11:44:25.001Z</time>
      </trkpt>
      <trkpt lat="48.0557" lon="5.5455">
        <ele>339.639</ele>
        <time>2019-09-24T11:44:55.001Z</time>
      </trkpt>
      <trkpt lat="48.05496" lon="5.54553">
        <ele>346.149</ele>
        <time>2019-09-24T11:45:25.001Z</time>
      </trkpt>
      <trkpt lat="48.054" lon="5.54511">
        <ele>350.617</ele>
        <time>2019-09-24T11:45:55.001Z</time>
      </trkpt>
      <trkpt lat="48.05275" lon="5.5453">
        <ele>347.916</ele>
        <time>2019-09-24T11:46:25.001Z</time>
      </trkpt>
      <trkpt lat="48.05154" lon="5.54482">
        <ele>344.481</ele>
        <time>2019-09-24T11:46:55.001Z</time>
      </trkpt>
      <trkpt lat="48.0503" lon="5.54432">
        <ele>342.557</ele>
        <time>2019-09-24T11:47:25.001Z</time>
      </trkpt>
      <trkpt lat="48.04936" lon="5.54411">
        <ele>342.419</ele>
        <time>2019-09-24T11:47:55.001Z</time>
      </trkpt>
      <trkpt lat="48.04843" lon="5.54385">
        <ele>342.731</ele>
        <time>2019-09-24T11:48:25.001Z</time>
      </trkpt>
      <trkpt lat="48.04746" lon="5.54363">
        <ele>344.303</ele>
        <time>2019-09-24T11:48:55.001Z</time>
      </trkpt>
      <trkpt lat="48.04613" lon="5.54327">
        <ele>340.118</ele>
        <time>2019-09-24T11:49:25.001Z</time>
      </trkpt>
      <trkpt lat="48.04395" lon="5.54153">
        <ele>326.761</ele>
        <time>2019-09-24T11:49:55.001Z</time>
      </trkpt>
      <trkpt lat="48.04277" lon="5.54083">
        <ele>326.649</ele>
        <time>2019-09-24T11:50:25.001Z</time>
      </trkpt>
      <trkpt lat="48.04164" lon="5.54117">
        <ele>328.045</ele>
        <time>2019-09-24T11:50:55.001Z</time>
      </trkpt>
      <trkpt lat="48.04058" lon="5.54224">
        <ele>327.7</ele>
        <time>2019-09-24T11:51:25.001Z</time>
      </trkpt>
      <trkpt lat="48.03953" lon="5.54324">
        <ele>328.337</ele>
        <time>2019-09-24T11:51:55.001Z</time>
      </trkpt>
      <trkpt lat="48.03845" lon="5.5442">
        <ele>331.599</ele>
        <time>2019-09-24T11:52:25.001Z</time>
      </trkpt>
      <trkpt lat="48.03726" lon="5.54455">
        <ele>329.611</ele>
        <time>2019-09-24T11:52:55.001Z</time>
      </trkpt>
      <trkpt lat="48.03613" lon="5.54401">
        <ele>330.609</ele>
        <time>2019-09-24T11:53:25.001Z</time>
      </trkpt>
      <trkpt lat="48.03507" lon="5.54401">
        <ele>334.164</ele>
        <time>2019-09-24T11:53:55.001Z</time>
      </trkpt>
      <trkpt lat="48.034" lon="5.54406">
        <ele>336.37</ele>
        <time>2019-09-24T11:54:25.001Z</time>
      </trkpt>
      <trkpt lat="48.03282" lon="5.54392">
        <ele>336.753</ele>
        <time>2019-09-24T11:54:58.001Z</time>
      </trkpt>
      <trkpt lat="48.0319" lon="5.54358">
        <ele>336.682</ele>
        <time>2019-09-24T11:55:28.001Z</time>
      </trkpt>
      <trkpt lat="48.03098" lon="5.54367">
        <ele>336.704</ele>
        <time>2019-09-24T11:55:58.001Z</time>
      </trkpt>
      <trkpt lat="48.02985" lon="5.54385">
        <ele>335.479</ele>
        <time>2019-09-24T11:56:28.001Z</time>
      </trkpt>
      <trkpt lat="48.02879" lon="5.54217">
        <ele>331.842</ele>
        <time>2019-09-24T11:56:58.001Z</time>
      </trkpt>
      <trkpt lat="48.02771" lon="5.53992">
        <ele>330.822</ele>
        <time>2019-09-24T11:57:28.001Z</time>
      </trkpt>
      <trkpt lat="48.0269" lon="5.53846">
        <ele>328.459</ele>
        <time>2019-09-24T11:57:58.001Z</time>
      </trkpt>
      <trkpt lat="48.02605" lon="5.53717">
        <ele>329.37</ele>
        <time>2019-09-24T11:58:28.001Z</time>
      </trkpt>
      <trkpt lat="48.02547" lon="5.5357">
        <ele>327.21</ele>
        <time>2019-09-24T11:58:58.001Z</time>
      </trkpt>
      <trkpt lat="48.02588" lon="5.53385">
        <ele>325.439</ele>
        <time>2019-09-24T11:59:28.001Z</time>
      </trkpt>
      <trkpt lat="48.02572" lon="5.53243">
        <ele>331.38</ele>
        <time>2019-09-24T11:59:58.001Z</time>
      </trkpt>
      <trkpt lat="48.02543" lon="5.53045">
        <ele>329.416</ele>
        <time>2019-09-24T12:00:28.001Z</time>
      </trkpt>
      <trkpt lat="48.0247" lon="5.52871">
        <ele>331.022</ele>
        <time>2019-09-24T12:00:58.001Z</time>
      </trkpt>
      <trkpt lat="48.02371" lon="5.52779">
        <ele>333.172</ele>
        <time>2019-09-24T12:01:28.001Z</time>
      </trkpt>
      <trkpt lat="48.02278" lon="5.52676">
        <ele>333.494</ele>
        <time>2019-09-24T12:01:58.001Z</time>
      </trkpt>
      <trkpt lat="48.02204" lon="5.52546">
        <ele>333.86</ele>
        <time>2019-09-24T12:02:28.001Z</time>
      </trkpt>
      <trkpt lat="48.02121" lon="5.52444">
        <ele>335.592</ele>
        <time>2019-09-24T12:02:58.001Z</time>
      </trkpt>
      <trkpt lat="48.0204" lon="5.52284">
        <ele>333.521</ele>
        <time>2019-09-24T12:03:28.001Z</time>
      </trkpt>
      <trkpt lat="48.01916" lon="5.5222">
        <ele>331.104</ele>
        <time>2019-09-24T12:03:58.001Z</time>
      </trkpt>
      <trkpt lat="48.01834" lon="5.52336">
        <ele>330.156</ele>
        <time>2019-09-24T12:04:28.001Z</time>
      </trkpt>
      <trkpt lat="48.01804" lon="5.52448">
        <ele>336.115</ele>
        <time>2019-09-24T12:04:58.001Z</time>
      </trkpt>
      <trkpt lat="48.01777" lon="5.52539">
        <ele>343.062</ele>
        <time>2019-09-24T12:05:28.001Z</time>
      </trkpt>
      <trkpt lat="48.01733" lon="5.52625">
        <ele>346.494</ele>
        <time>2019-09-24T12:05:58.001Z</time>
      </trkpt>
      <trkpt lat="48.01662" lon="5.52745">
        <ele>344.558</ele>
        <time>2019-09-24T12:06:31.001Z</time>
      </trkpt>
      <trkpt lat="48.01611" lon="5.52828">
        <ele>342.403</ele>
        <time>2019-09-24T12:16:49.001Z</time>
      </trkpt>
      <trkpt lat="48.01511" lon="5.52874">
        <ele>342.385</ele>
        <time>2019-09-24T12:17:19.001Z</time>
      </trkpt>
      <trkpt lat="48.01422" lon="5.52857">
        <ele>345.704</ele>
        <time>2019-09-24T12:17:49.001Z</time>
      </trkpt>
      <trkpt lat="48.0133" lon="5.52778">
        <ele>347.737</ele>
        <time>2019-09-24T12:18:19.001Z</time>
      </trkpt>
      <trkpt lat="48.01242" lon="5.52673">
        <ele>347.304</ele>
        <time>2019-09-24T12:18:49.001Z</time>
      </trkpt>
      <trkpt lat="48.01089" lon="5.52718">
        <ele>340.793</ele>
        <time>2019-09-24T12:19:19.001Z</time>
      </trkpt>
      <trkpt lat="48.00993" lon="5.52838">
        <ele>343.895</ele>
        <time>2019-09-24T12:19:49.001Z</time>
      </trkpt>
      <trkpt lat="48.01043" lon="5.52974">
        <ele>346.199</ele>
        <time>2019-09-24T12:20:19.001Z</time>
      </trkpt>
      <trkpt lat="48.01132" lon="5.53256">
        <ele>339.958</ele>
        <time>2019-09-24T12:20:49.001Z</time>
      </trkpt>
      <trkpt lat="48.01298" lon="5.53447">
        <ele>332.818</ele>
        <time>2019-09-24T12:21:19.001Z</time>
      </trkpt>
      <trkpt lat="48.01388" lon="5.53696">
        <ele>327.815</ele>
        <time>2019-09-24T12:21:49.001Z</time>
      </trkpt>
      <trkpt lat="48.01428" lon="5.53808">
        <ele>337.243</ele>
        <time>2019-09-24T12:22:19.001Z</time>
      </trkpt>
      <trkpt lat="48.01453" lon="5.53909">
        <ele>342.48</ele>
        <time>2019-09-24T12:22:49.001Z</time>
      </trkpt>
      <trkpt lat="48.01473" lon="5.54018">
        <ele>342.116</ele>
        <time>2019-09-24T12:23:19.001Z</time>
      </trkpt>
      <trkpt lat="48.01492" lon="5.5413">
        <ele>346.215</ele>
        <time>2019-09-24T12:23:49.001Z</time>
      </trkpt>
      <trkpt lat="48.01509" lon="5.54276">
        <ele>350.109</ele>
        <time>2019-09-24T12:24:19.001Z</time>
      </trkpt>
      <trkpt lat="48.01522" lon="5.54447">
        <ele>347.313</ele>
        <time>2019-09-24T12:24:49.002Z</time>
      </trkpt>
      <trkpt lat="48.01518" lon="5.54583">
        <ele>345.266</ele>
        <time>2019-09-24T12:25:19.001Z</time>
      </trkpt>
      <trkpt lat="48.01489" lon="5.54708">
        <ele>347.062</ele>
        <time>2019-09-24T12:25:49.001Z</time>
      </trkpt>
      <trkpt lat="48.01475" lon="5.54827">
        <ele>351.946</ele>
        <time>2019-09-24T12:26:19.001Z</time>
      </trkpt>
      <trkpt lat="48.01481" lon="5.54951">
        <ele>354.749</ele>
        <time>2019-09-24T12:26:49.001Z</time>
      </trkpt>
      <trkpt lat="48.01481" lon="5.55102">
        <ele>354.798</ele>
        <time>2019-09-24T12:27:19.001Z</time>
      </trkpt>
      <trkpt lat="48.01431" lon="5.55244">
        <ele>355.51</ele>
        <time>2019-09-24T12:27:52.001Z</time>
      </trkpt>
      <trkpt lat="48.01371" lon="5.55377">
        <ele>359.209</ele>
        <time>2019-09-24T12:28:22.001Z</time>
      </trkpt>
      <trkpt lat="48.01358" lon="5.55502">
        <ele>359.86</ele>
        <time>2019-09-24T12:28:52.001Z</time>
      </trkpt>
      <trkpt lat="48.01366" lon="5.55625">
        <ele>362.955</ele>
        <time>2019-09-24T12:29:22.001Z</time>
      </trkpt>
      <trkpt lat="48.01381" lon="5.55753">
        <ele>365.212</ele>
        <time>2019-09-24T12:29:52.001Z</time>
      </trkpt>
      <trkpt lat="48.01405" lon="5.55896">
        <ele>366.412</ele>
        <time>2019-09-24T12:30:22.001Z</time>
      </trkpt>
      <trkpt lat="48.01505" lon="5.56028">
        <ele>365.272</ele>
        <time>2019-09-24T12:30:52.001Z</time>
      </trkpt>
      <trkpt lat="48.01549" lon="5.56226">
        <ele>364.629</ele>
        <time>2019-09-24T12:31:22.001Z</time>
      </trkpt>
      <trkpt lat="48.0154" lon="5.56368">
        <ele>369.747</ele>
        <time>2019-09-24T12:31:52.001Z</time>
      </trkpt>
      <trkpt lat="48.01514" lon="5.56517">
        <ele>370.209</ele>
        <time>2019-09-24T12:32:22.001Z</time>
      </trkpt>
      <trkpt lat="48.01489" lon="5.56664">
        <ele>372.537</ele>
        <time>2019-09-24T12:32:52.001Z</time>
      </trkpt>
      <trkpt lat="48.01454" lon="5.56821">
        <ele>370.829</ele>
        <time>2019-09-24T12:33:22.001Z</time>
      </trkpt>
      <trkpt lat="48.01426" lon="5.5694">
        <ele>371.88</ele>
        <time>2019-09-24T12:33:52.001Z</time>
      </trkpt>
      <trkpt lat="48.01407" lon="5.57051">
        <ele>373.98</ele>
        <time>2019-09-24T12:34:22.001Z</time>
      </trkpt>
      <trkpt lat="48.01397" lon="5.57157">
        <ele>377.245</ele>
        <time>2019-09-24T12:34:52.001Z</time>
      </trkpt>
      <trkpt lat="48.01398" lon="5.57269">
        <ele>380.72</ele>
        <time>2019-09-24T12:35:22.001Z</time>
      </trkpt>
      <trkpt lat="48.01459" lon="5.57381">
        <ele>381.062</ele>
        <time>2019-09-24T12:35:52.001Z</time>
      </trkpt>
      <trkpt lat="48.0154" lon="5.5757">
        <ele>376.079</ele>
        <time>2019-09-24T12:36:22.001Z</time>
      </trkpt>
      <trkpt lat="48.01618" lon="5.57738">
        <ele>374.291</ele>
        <time>2019-09-24T12:36:52.001Z</time>
      </trkpt>
      <trkpt lat="48.01714" lon="5.57935">
        <ele>372.525</ele>
        <time>2019-09-24T12:37:22.001Z</time>
      </trkpt>
      <trkpt lat="48.01736" lon="5.5814">
        <ele>371.454</ele>
        <time>2019-09-24T12:37:52.001Z</time>
      </trkpt>
      <trkpt lat="48.01702" lon="5.5831">
        <ele>368.708</ele>
        <time>2019-09-24T12:38:22.001Z</time>
      </trkpt>
      <trkpt lat="48.01696" lon="5.58484">
        <ele>368.133</ele>
        <time>2019-09-24T12:38:52.001Z</time>
      </trkpt>
      <trkpt lat="48.01798" lon="5.58615">
        <ele>374.027</ele>
        <time>2019-09-24T12:39:25.001Z</time>
      </trkpt>
      <trkpt lat="48.01807" lon="5.58846">
        <ele>371.893</ele>
        <time>2019-09-24T12:39:55.001Z</time>
      </trkpt>
      <trkpt lat="48.01747" lon="5.58972">
        <ele>372.497</ele>
        <time>2019-09-24T12:40:25.001Z</time>
      </trkpt>
      <trkpt lat="48.01672" lon="5.59061">
        <ele>373.971</ele>
        <time>2019-09-24T12:40:55.001Z</time>
      </trkpt>
      <trkpt lat="48.0161" lon="5.59168">
        <ele>373.601</ele>
        <time>2019-09-24T12:41:25.001Z</time>
      </trkpt>
      <trkpt lat="48.01537" lon="5.59234">
        <ele>376.642</ele>
        <time>2019-09-24T12:41:55.001Z</time>
      </trkpt>
      <trkpt lat="48.01469" lon="5.59316">
        <ele>373.896</ele>
        <time>2019-09-24T12:42:25.001Z</time>
      </trkpt>
      <trkpt lat="48.0142" lon="5.59381">
        <ele>381.664</ele>
        <time>2019-09-24T12:42:55.001Z</time>
      </trkpt>
      <trkpt lat="48.01396" lon="5.59423">
        <ele>381.881</ele>
        <time>2019-09-24T12:45:34.001Z</time>
      </trkpt>
      <trkpt lat="48.01325" lon="5.5951">
        <ele>381.768</ele>
        <time>2019-09-24T12:46:04.001Z</time>
      </trkpt>
      <trkpt lat="48.01241" lon="5.59577">
        <ele>380.693</ele>
        <time>2019-09-24T12:46:34.001Z</time>
      </trkpt>
      <trkpt lat="48.01148" lon="5.59613">
        <ele>379.641</ele>
        <time>2019-09-24T12:47:04.001Z</time>
      </trkpt>
      <trkpt lat="48.01048" lon="5.59617">
        <ele>381.759</ele>
        <time>2019-09-24T12:47:34.001Z</time>
      </trkpt>
      <trkpt lat="48.00906" lon="5.59635">
        <ele>383.03</ele>
        <time>2019-09-24T12:48:04.001Z</time>
      </trkpt>
      <trkpt lat="48.00796" lon="5.5974">
        <ele>383.16</ele>
        <time>2019-09-24T12:48:34.001Z</time>
      </trkpt>
      <trkpt lat="48.00749" lon="5.59803">
        <ele>388.077</ele>
        <time>2019-09-24T12:49:04.001Z</time>
      </trkpt>
      <trkpt lat="48.00734" lon="5.59928">
        <ele>389.59</ele>
        <time>2019-09-24T12:49:34.001Z</time>
      </trkpt>
      <trkpt lat="48.00701" lon="5.60107">
        <ele>386.544</ele>
        <time>2019-09-24T12:50:04.001Z</time>
      </trkpt>
      <trkpt lat="48.00681" lon="5.60278">
        <ele>388.096</ele>
        <time>2019-09-24T12:50:34.001Z</time>
      </trkpt>
      <trkpt lat="48.00672" lon="5.60431">
        <ele>388.904</ele>
        <time>2019-09-24T12:51:04.001Z</time>
      </trkpt>
      <trkpt lat="48.00617" lon="5.60566">
        <ele>395.215</ele>
        <time>2019-09-24T12:51:34.001Z</time>
      </trkpt>
      <trkpt lat="48.0054" lon="5.60637">
        <ele>390.705</ele>
        <time>2019-09-24T12:52:04.001Z</time>
      </trkpt>
      <trkpt lat="48.00464" lon="5.60701">
        <ele>394.926</ele>
        <time>2019-09-24T12:52:34.001Z</time>
      </trkpt>
      <trkpt lat="48.00359" lon="5.60777">
        <ele>395.917</ele>
        <time>2019-09-24T12:53:07.001Z</time>
      </trkpt>
      <trkpt lat="48.0022" lon="5.60953">
        <ele>387.622</ele>
        <time>2019-09-24T12:53:37.001Z</time>
      </trkpt>
      <trkpt lat="48.00066" lon="5.6109">
        <ele>386.792</ele>
        <time>2019-09-24T12:54:07.001Z</time>
      </trkpt>
      <trkpt lat="47.99955" lon="5.61174">
        <ele>382.785</ele>
        <time>2019-09-24T12:54:37.001Z</time>
      </trkpt>
      <trkpt lat="47.99805" lon="5.61249">
        <ele>383.918</ele>
        <time>2019-09-24T12:55:07.001Z</time>
      </trkpt>
      <trkpt lat="47.99722" lon="5.61438">
        <ele>385.41</ele>
        <time>2019-09-24T12:55:37.001Z</time>
      </trkpt>
      <trkpt lat="47.99662" lon="5.61433">
        <ele>386.068</ele>
        <time>2019-09-24T12:56:07.001Z</time>
      </trkpt>
      <trkpt lat="47.99589" lon="5.61407">
        <ele>389.48</ele>
        <time>2019-09-24T12:56:37.001Z</time>
      </trkpt>
      <trkpt lat="47.99514" lon="5.61442">
        <ele>388.586</ele>
        <time>2019-09-24T12:57:07.001Z</time>
      </trkpt>
      <trkpt lat="47.99382" lon="5.61508">
        <ele>386.37</ele>
        <time>2019-09-24T12:57:37.001Z</time>
      </trkpt>
      <trkpt lat="47.99246" lon="5.61596">
        <ele>383.766</ele>
        <time>2019-09-24T12:58:07.001Z</time>
      </trkpt>
      <trkpt lat="47.99158" lon="5.61695">
        <ele>384.323</ele>
        <time>2019-09-24T12:58:37.001Z</time>
      </trkpt>
      <trkpt lat="47.99098" lon="5.61786">
        <ele>385.482</ele>
        <time>2019-09-24T12:59:07.001Z</time>
      </trkpt>
      <trkpt lat="47.99028" lon="5.61869">
        <ele>385.675</ele>
        <time>2019-09-24T12:59:37.001Z</time>
      </trkpt>
      <trkpt lat="47.98918" lon="5.61939">
        <ele>385.096</ele>
        <time>2019-09-24T13:00:07.001Z</time>
      </trkpt>
      <trkpt lat="47.98764" lon="5.6198">
        <ele>380.928</ele>
        <time>2019-09-24T13:00:37.001Z</time>
      </trkpt>
      <trkpt lat="47.98667" lon="5.62111">
        <ele>381.34</ele>
        <time>2019-09-24T13:01:07.001Z</time>
      </trkpt>
      <trkpt lat="47.98609" lon="5.62208">
        <ele>385.284</ele>
        <time>2019-09-24T13:01:37.001Z</time>
      </trkpt>
      <trkpt lat="47.98547" lon="5.62311">
        <ele>388.19</ele>
        <time>2019-09-24T13:02:07.001Z</time>
      </trkpt>
      <trkpt lat="47.98482" lon="5.62413">
        <ele>389.16</ele>
        <time>2019-09-24T13:02:37.001Z</time>
      </trkpt>
      <trkpt lat="47.98427" lon="5.62501">
        <ele>391.612</ele>
        <time>2019-09-24T13:03:07.001Z</time>
      </trkpt>
      <trkpt lat="47.9838" lon="5.62596">
        <ele>393.463</ele>
        <time>2019-09-24T13:03:37.001Z</time>
      </trkpt>
      <trkpt lat="47.98338" lon="5.62716">
        <ele>395.195</ele>
        <time>2019-09-24T13:04:07.001Z</time>
      </trkpt>
      <trkpt lat="47.98291" lon="5.62806">
        <ele>396.395</ele>
        <time>2019-09-24T13:04:40.001Z</time>
      </trkpt>
      <trkpt lat="47.98204" lon="5.62788">
        <ele>396.056</ele>
        <time>2019-09-24T13:05:10.001Z</time>
      </trkpt>
      <trkpt lat="47.98138" lon="5.62895">
        <ele>400.896</ele>
        <time>2019-09-24T13:05:40.001Z</time>
      </trkpt>
      <trkpt lat="47.98128" lon="5.62901">
        <ele>395.375</ele>
        <time>2019-09-24T13:11:13.001Z</time>
      </trkpt>
      <trkpt lat="47.98129" lon="5.62894">
        <ele>393.476</ele>
        <time>2019-09-24T15:15:16Z</time>
      </trkpt>
      <trkpt lat="47.98129" lon="5.62894">
        <ele>393.968</ele>
        <time>2019-09-24T13:17:43.001Z</time>
      </trkpt>
      <trkpt lat="47.98129" lon="5.62893">
        <ele>393.942</ele>
        <time>2019-09-24T13:19:19.001Z</time>
      </trkpt>
      <trkpt lat="47.98123" lon="5.62922">
        <ele>395.476</ele>
        <time>2019-09-24T13:30:10.001Z</time>
      </trkpt>
      <trkpt lat="47.98163" lon="5.63038">
        <ele>399.624</ele>
        <time>2019-09-24T13:30:40.001Z</time>
      </trkpt>
      <trkpt lat="47.98145" lon="5.63175">
        <ele>397.894</ele>
        <time>2019-09-24T13:31:10.001Z</time>
      </trkpt>
      <trkpt lat="47.98157" lon="5.63312">
        <ele>399.561</ele>
        <time>2019-09-24T13:31:40.002Z</time>
      </trkpt>
      <trkpt lat="47.98167" lon="5.6344">
        <ele>404.045</ele>
        <time>2019-09-24T13:32:10.001Z</time>
      </trkpt>
      <trkpt lat="47.98174" lon="5.63586">
        <ele>405.958</ele>
        <time>2019-09-24T13:32:40.001Z</time>
      </trkpt>
      <trkpt lat="47.98166" lon="5.6372">
        <ele>407.119</ele>
        <time>2019-09-24T13:33:10.001Z</time>
      </trkpt>
      <trkpt lat="47.98189" lon="5.63866">
        <ele>407.174</ele>
        <time>2019-09-24T13:33:40.001Z</time>
      </trkpt>
      <trkpt lat="47.98216" lon="5.64023">
        <ele>405.524</ele>
        <time>2019-09-24T13:34:10.001Z</time>
      </trkpt>
      <trkpt lat="47.98257" lon="5.642">
        <ele>405.961</ele>
        <time>2019-09-24T13:34:40.001Z</time>
      </trkpt>
      <trkpt lat="47.98311" lon="5.644">
        <ele>404.22</ele>
        <time>2019-09-24T13:35:10.001Z</time>
      </trkpt>
      <trkpt lat="47.98413" lon="5.64584">
        <ele>403.076</ele>
        <time>2019-09-24T13:35:40.001Z</time>
      </trkpt>
      <trkpt lat="47.98439" lon="5.64942">
        <ele>392.118</ele>
        <time>2019-09-24T13:36:10.001Z</time>
      </trkpt>
      <trkpt lat="47.98587" lon="5.65245">
        <ele>381.125</ele>
        <time>2019-09-24T13:36:40.001Z</time>
      </trkpt>
      <trkpt lat="47.98711" lon="5.656">
        <ele>366.768</ele>
        <time>2019-09-24T13:37:10.001Z</time>
      </trkpt>
      <trkpt lat="47.98855" lon="5.65773">
        <ele>341.587</ele>
        <time>2019-09-24T13:37:40.001Z</time>
      </trkpt>
      <trkpt lat="47.98654" lon="5.65944">
        <ele>321.196</ele>
        <time>2019-09-24T13:38:13.001Z</time>
      </trkpt>
      <trkpt lat="47.9863" lon="5.66329">
        <ele>304.999</ele>
        <time>2019-09-24T13:38:43.001Z</time>
      </trkpt>
      <trkpt lat="47.98549" lon="5.66472">
        <ele>303.28</ele>
        <time>2019-09-24T13:39:13.001Z</time>
      </trkpt>
      <trkpt lat="47.98487" lon="5.66741">
        <ele>302.153</ele>
        <time>2019-09-24T13:39:43.001Z</time>
      </trkpt>
      <trkpt lat="47.98487" lon="5.67028">
        <ele>301.971</ele>
        <time>2019-09-24T13:40:13.001Z</time>
      </trkpt>
      <trkpt lat="47.98427" lon="5.67227">
        <ele>301.922</ele>
        <time>2019-09-24T13:40:43.001Z</time>
      </trkpt>
      <trkpt lat="47.98359" lon="5.67427">
        <ele>297.651</ele>
        <time>2019-09-24T13:41:13.001Z</time>
      </trkpt>
      <trkpt lat="47.98323" lon="5.67736">
        <ele>296.889</ele>
        <time>2019-09-24T13:41:43.001Z</time>
      </trkpt>
      <trkpt lat="47.98359" lon="5.67956">
        <ele>302.152</ele>
        <time>2019-09-24T13:42:13.001Z</time>
      </trkpt>
      <trkpt lat="47.98386" lon="5.68189">
        <ele>298.753</ele>
        <time>2019-09-24T13:42:43.001Z</time>
      </trkpt>
      <trkpt lat="47.98408" lon="5.68359">
        <ele>304.142</ele>
        <time>2019-09-24T13:43:13.001Z</time>
      </trkpt>
      <trkpt lat="47.98489" lon="5.68459">
        <ele>301.411</ele>
        <time>2019-09-24T13:43:43.001Z</time>
      </trkpt>
      <trkpt lat="47.98608" lon="5.68507">
        <ele>305.166</ele>
        <time>2019-09-24T13:44:13.001Z</time>
      </trkpt>
      <trkpt lat="47.98677" lon="5.68676">
        <ele>310.602</ele>
        <time>2019-09-24T13:44:43.001Z</time>
      </trkpt>
      <trkpt lat="47.98627" lon="5.68907">
        <ele>296.029</ele>
        <time>2019-09-24T13:45:13.001Z</time>
      </trkpt>
      <trkpt lat="47.98558" lon="5.69002">
        <ele>298.968</ele>
        <time>2019-09-24T13:45:43.001Z</time>
      </trkpt>
      <trkpt lat="47.98563" lon="5.69121">
        <ele>305.012</ele>
        <time>2019-09-24T13:46:13.001Z</time>
      </trkpt>
      <trkpt lat="47.98561" lon="5.69288">
        <ele>302.131</ele>
        <time>2019-09-24T13:46:43.001Z</time>
      </trkpt>
      <trkpt lat="47.9846" lon="5.69573">
        <ele>292.728</ele>
        <time>2019-09-24T13:47:13.001Z</time>
      </trkpt>
      <trkpt lat="47.98341" lon="5.6992">
        <ele>278.27</ele>
        <time>2019-09-24T13:47:43.001Z</time>
      </trkpt>
      <trkpt lat="47.98172" lon="5.70162">
        <ele>271.981</ele>
        <time>2019-09-24T13:48:13.001Z</time>
      </trkpt>
      <trkpt lat="47.98047" lon="5.70271">
        <ele>272.997</ele>
        <time>2019-09-24T13:48:43.001Z</time>
      </trkpt>
      <trkpt lat="47.97888" lon="5.70245">
        <ele>278.743</ele>
        <time>2019-09-24T13:49:13.001Z</time>
      </trkpt>
      <trkpt lat="47.97734" lon="5.70395">
        <ele>277.303</ele>
        <time>2019-09-24T13:49:46.001Z</time>
      </trkpt>
      <trkpt lat="47.9761" lon="5.70527">
        <ele>277.626</ele>
        <time>2019-09-24T15:50:16Z</time>
      </trkpt>
      <trkpt lat="47.97484" lon="5.70635">
        <ele>277.679</ele>
        <time>2019-09-24T13:50:46.001Z</time>
      </trkpt>
      <trkpt lat="47.97386" lon="5.70789">
        <ele>275.167</ele>
        <time>2019-09-24T15:51:16Z</time>
      </trkpt>
      <trkpt lat="47.97308" lon="5.70956">
        <ele>287.874</ele>
        <time>2019-09-24T13:51:46.001Z</time>
      </trkpt>
      <trkpt lat="47.97253" lon="5.71175">
        <ele>294.596</ele>
        <time>2019-09-24T15:52:16Z</time>
      </trkpt>
      <trkpt lat="47.97215" lon="5.7143">
        <ele>296.171</ele>
        <time>2019-09-24T13:52:46.001Z</time>
      </trkpt>
      <trkpt lat="47.97184" lon="5.7162">
        <ele>278.315</ele>
        <time>2019-09-24T15:53:16Z</time>
      </trkpt>
      <trkpt lat="47.97187" lon="5.71708">
        <ele>272.203</ele>
        <time>2019-09-24T13:54:46.001Z</time>
      </trkpt>
      <trkpt lat="47.9722" lon="5.71898">
        <ele>274.236</ele>
        <time>2019-09-24T15:55:16Z</time>
      </trkpt>
      <trkpt lat="47.97289" lon="5.72135">
        <ele>288.311</ele>
        <time>2019-09-24T13:55:46.001Z</time>
      </trkpt>
      <trkpt lat="47.9729" lon="5.72421">
        <ele>267.287</ele>
        <time>2019-09-24T15:56:16Z</time>
      </trkpt>
      <trkpt lat="47.97269" lon="5.72659">
        <ele>267.207</ele>
        <time>2019-09-24T13:56:46.001Z</time>
      </trkpt>
      <trkpt lat="47.97231" lon="5.72892">
        <ele>277.488</ele>
        <time>2019-09-24T15:57:16Z</time>
      </trkpt>
      <trkpt lat="47.97129" lon="5.7311">
        <ele>260.153</ele>
        <time>2019-09-24T13:57:46.001Z</time>
      </trkpt>
      <trkpt lat="47.97008" lon="5.73235">
        <ele>261.607</ele>
        <time>2019-09-24T15:58:16Z</time>
      </trkpt>
      <trkpt lat="47.9686" lon="5.73358">
        <ele>261.888</ele>
        <time>2019-09-24T13:58:46.001Z</time>
      </trkpt>
      <trkpt lat="47.9677" lon="5.73573">
        <ele>262.668</ele>
        <time>2019-09-24T15:59:16Z</time>
      </trkpt>
      <trkpt lat="47.9673" lon="5.73824">
        <ele>262.8</ele>
        <time>2019-09-24T13:59:46.001Z</time>
      </trkpt>
      <trkpt lat="47.96668" lon="5.74065">
        <ele>258.009</ele>
        <time>2019-09-24T16:00:16Z</time>
      </trkpt>
      <trkpt lat="47.96541" lon="5.74212">
        <ele>258.435</ele>
        <time>2019-09-24T14:00:46.001Z</time>
      </trkpt>
      <trkpt lat="47.96413" lon="5.74306">
        <ele>260.412</ele>
        <time>2019-09-24T16:01:16Z</time>
      </trkpt>
      <trkpt lat="47.96301" lon="5.7445">
        <ele>259.309</ele>
        <time>2019-09-24T14:01:46.001Z</time>
      </trkpt>
      <trkpt lat="47.96156" lon="5.74557">
        <ele>257.885</ele>
        <time>2019-09-24T14:02:19.001Z</time>
      </trkpt>
      <trkpt lat="47.96013" lon="5.74637">
        <ele>259.747</ele>
        <time>2019-09-24T14:02:49.001Z</time>
      </trkpt>
      <trkpt lat="47.95962" lon="5.74571">
        <ele>261.325</ele>
        <time>2019-09-24T14:03:19.001Z</time>
      </trkpt>
      <trkpt lat="47.95989" lon="5.7436">
        <ele>261.457</ele>
        <time>2019-09-24T14:03:49.001Z</time>
      </trkpt>
      <trkpt lat="47.95894" lon="5.74281">
        <ele>263.156</ele>
        <time>2019-09-24T14:04:19.001Z</time>
      </trkpt>
      <trkpt lat="47.95826" lon="5.74229">
        <ele>270.512</ele>
        <time>2019-09-24T14:04:49.001Z</time>
      </trkpt>
      <trkpt lat="47.95757" lon="5.74212">
        <ele>277.497</ele>
        <time>2019-09-24T14:05:19.001Z</time>
      </trkpt>
      <trkpt lat="47.95735" lon="5.74126">
        <ele>281.625</ele>
        <time>2019-09-24T14:05:49.001Z</time>
      </trkpt>
      <trkpt lat="47.95731" lon="5.74017">
        <ele>283.1</ele>
        <time>2019-09-24T14:06:19.001Z</time>
      </trkpt>
      <trkpt lat="47.95693" lon="5.73998">
        <ele>279.376</ele>
        <time>2019-09-24T14:17:58.001Z</time>
      </trkpt>
      <trkpt lat="47.95692" lon="5.74003">
        <ele>280.662</ele>
        <time>2019-09-24T14:25:19.001Z</time>
      </trkpt>
    </trkseg>
  </trk>
</gpx>